<?xml version="1.0" encoding="UTF-8" standalone="no" ?>
<gpx xmlns="http://www.topografix.com/GPX/1/1" xmlns:xsi="http://www.w3.org/2001/XMLSchema-instance" xsi:schemaLocation="http://www.topografix.com/GPX/1/1 http://www.topografix.com/GPX/1/1/gpx.xsd" version="1.1" creator="VisuGPX - https://www.visugpx.com">
  <metadata>
    <name>Marche FFBMP Cour sur Heure</name>
    <desc><![CDATA[Marche FFBMP des Traîne savates de Montigny à Cour sur Heure le 17 avril 2017]]></desc>
  </metadata>
  <trk>
    <name><![CDATA[2017-04-17 14:49:16]]></name>
    <trkseg>
      <trkpt lat="50.30079" lon="4.3898">
        <ele>144.34</ele>
        <time>2017-04-17T09:13:13Z</time>
      </trkpt>
      <trkpt lat="50.30079" lon="4.3898">
        <ele>144.34</ele>
        <time>2017-04-17T09:13:14Z</time>
      </trkpt>
      <trkpt lat="50.30073" lon="4.38974">
        <ele>144.82</ele>
        <time>2017-04-17T09:13:37Z</time>
      </trkpt>
      <trkpt lat="50.30074" lon="4.38977">
        <ele>144.34</ele>
        <time>2017-04-17T09:13:56Z</time>
      </trkpt>
      <trkpt lat="50.30072" lon="4.38974">
        <ele>144.34</ele>
        <time>2017-04-17T09:14:20Z</time>
      </trkpt>
      <trkpt lat="50.3007" lon="4.38974">
        <ele>144.34</ele>
        <time>2017-04-17T09:14:22Z</time>
      </trkpt>
      <trkpt lat="50.3006" lon="4.38966">
        <ele>144.34</ele>
        <time>2017-04-17T09:14:33Z</time>
      </trkpt>
      <trkpt lat="50.30042" lon="4.38969">
        <ele>143.85</ele>
        <time>2017-04-17T09:14:47Z</time>
      </trkpt>
      <trkpt lat="50.30024" lon="4.38969">
        <ele>143.37</ele>
        <time>2017-04-17T09:15:03Z</time>
      </trkpt>
      <trkpt lat="50.3001" lon="4.38965">
        <ele>142.89</ele>
        <time>2017-04-17T09:15:14Z</time>
      </trkpt>
      <trkpt lat="50.30007" lon="4.38962">
        <ele>142.89</ele>
        <time>2017-04-17T09:15:16Z</time>
      </trkpt>
      <trkpt lat="50.30007" lon="4.38952">
        <ele>142.41</ele>
        <time>2017-04-17T09:15:24Z</time>
      </trkpt>
      <trkpt lat="50.30007" lon="4.38943">
        <ele>142.41</ele>
        <time>2017-04-17T09:15:31Z</time>
      </trkpt>
      <trkpt lat="50.30007" lon="4.3894">
        <ele>142.41</ele>
        <time>2017-04-17T09:15:33Z</time>
      </trkpt>
      <trkpt lat="50.30004" lon="4.38929">
        <ele>142.41</ele>
        <time>2017-04-17T09:15:41Z</time>
      </trkpt>
      <trkpt lat="50.3" lon="4.38922">
        <ele>142.41</ele>
        <time>2017-04-17T09:15:46Z</time>
      </trkpt>
      <trkpt lat="50.29997" lon="4.38917">
        <ele>142.41</ele>
        <time>2017-04-17T09:15:49Z</time>
      </trkpt>
      <trkpt lat="50.29975" lon="4.38904">
        <ele>142.41</ele>
        <time>2017-04-17T09:16:07Z</time>
      </trkpt>
      <trkpt lat="50.29953" lon="4.38895">
        <ele>142.89</ele>
        <time>2017-04-17T09:16:25Z</time>
      </trkpt>
      <trkpt lat="50.2993" lon="4.38887">
        <ele>142.89</ele>
        <time>2017-04-17T09:16:42Z</time>
      </trkpt>
      <trkpt lat="50.2991" lon="4.3888">
        <ele>144.34</ele>
        <time>2017-04-17T09:16:58Z</time>
      </trkpt>
      <trkpt lat="50.2989" lon="4.38868">
        <ele>144.34</ele>
        <time>2017-04-17T09:17:14Z</time>
      </trkpt>
      <trkpt lat="50.29872" lon="4.38855">
        <ele>144.82</ele>
        <time>2017-04-17T09:17:31Z</time>
      </trkpt>
      <trkpt lat="50.29851" lon="4.38843">
        <ele>145.3</ele>
        <time>2017-04-17T09:17:49Z</time>
      </trkpt>
      <trkpt lat="50.29847" lon="4.3884">
        <ele>145.78</ele>
        <time>2017-04-17T09:17:53Z</time>
      </trkpt>
      <trkpt lat="50.29846" lon="4.38837">
        <ele>141.93</ele>
        <time>2017-04-17T09:17:55Z</time>
      </trkpt>
      <trkpt lat="50.29845" lon="4.38836">
        <ele>147.7</ele>
        <time>2017-04-17T09:17:56Z</time>
      </trkpt>
      <trkpt lat="50.29823" lon="4.38824">
        <ele>145.78</ele>
        <time>2017-04-17T09:18:15Z</time>
      </trkpt>
      <trkpt lat="50.29801" lon="4.3881">
        <ele>147.22</ele>
        <time>2017-04-17T09:18:33Z</time>
      </trkpt>
      <trkpt lat="50.29785" lon="4.38799">
        <ele>147.22</ele>
        <time>2017-04-17T09:18:48Z</time>
      </trkpt>
      <trkpt lat="50.29763" lon="4.38784">
        <ele>147.22</ele>
        <time>2017-04-17T09:19:06Z</time>
      </trkpt>
      <trkpt lat="50.29741" lon="4.38775">
        <ele>147.7</ele>
        <time>2017-04-17T09:19:25Z</time>
      </trkpt>
      <trkpt lat="50.29721" lon="4.38764">
        <ele>148.66</ele>
        <time>2017-04-17T09:19:41Z</time>
      </trkpt>
      <trkpt lat="50.29703" lon="4.38754">
        <ele>148.66</ele>
        <time>2017-04-17T09:19:57Z</time>
      </trkpt>
      <trkpt lat="50.29694" lon="4.38753">
        <ele>149.14</ele>
        <time>2017-04-17T09:20:04Z</time>
      </trkpt>
      <trkpt lat="50.29689" lon="4.3875">
        <ele>149.14</ele>
        <time>2017-04-17T09:20:08Z</time>
      </trkpt>
      <trkpt lat="50.29672" lon="4.3873">
        <ele>150.1</ele>
        <time>2017-04-17T09:20:25Z</time>
      </trkpt>
      <trkpt lat="50.29658" lon="4.38708">
        <ele>151.54</ele>
        <time>2017-04-17T09:20:41Z</time>
      </trkpt>
      <trkpt lat="50.29641" lon="4.38677">
        <ele>152.51</ele>
        <time>2017-04-17T09:21:00Z</time>
      </trkpt>
      <trkpt lat="50.29631" lon="4.38659">
        <ele>152.51</ele>
        <time>2017-04-17T09:21:13Z</time>
      </trkpt>
      <trkpt lat="50.29629" lon="4.38654">
        <ele>151.54</ele>
        <time>2017-04-17T09:21:16Z</time>
      </trkpt>
      <trkpt lat="50.29619" lon="4.38641">
        <ele>150.58</ele>
        <time>2017-04-17T09:21:29Z</time>
      </trkpt>
      <trkpt lat="50.29609" lon="4.38633">
        <ele>150.1</ele>
        <time>2017-04-17T09:21:36Z</time>
      </trkpt>
      <trkpt lat="50.29596" lon="4.38626">
        <ele>149.14</ele>
        <time>2017-04-17T09:21:50Z</time>
      </trkpt>
      <trkpt lat="50.29593" lon="4.38622">
        <ele>149.14</ele>
        <time>2017-04-17T09:21:53Z</time>
      </trkpt>
      <trkpt lat="50.29586" lon="4.386">
        <ele>149.62</ele>
        <time>2017-04-17T09:22:08Z</time>
      </trkpt>
      <trkpt lat="50.29583" lon="4.38591">
        <ele>150.58</ele>
        <time>2017-04-17T09:22:13Z</time>
      </trkpt>
      <trkpt lat="50.29577" lon="4.38559">
        <ele>152.99</ele>
        <time>2017-04-17T09:22:29Z</time>
      </trkpt>
      <trkpt lat="50.2957" lon="4.3853">
        <ele>155.87</ele>
        <time>2017-04-17T09:22:45Z</time>
      </trkpt>
      <trkpt lat="50.29565" lon="4.38499">
        <ele>157.31</ele>
        <time>2017-04-17T09:23:03Z</time>
      </trkpt>
      <trkpt lat="50.29562" lon="4.38468">
        <ele>159.72</ele>
        <time>2017-04-17T09:23:20Z</time>
      </trkpt>
      <trkpt lat="50.29561" lon="4.38446">
        <ele>160.68</ele>
        <time>2017-04-17T09:23:32Z</time>
      </trkpt>
      <trkpt lat="50.29567" lon="4.38415">
        <ele>163.56</ele>
        <time>2017-04-17T09:23:50Z</time>
      </trkpt>
      <trkpt lat="50.29568" lon="4.38408">
        <ele>164.52</ele>
        <time>2017-04-17T09:23:54Z</time>
      </trkpt>
      <trkpt lat="50.29572" lon="4.38392">
        <ele>165.48</ele>
        <time>2017-04-17T09:24:03Z</time>
      </trkpt>
      <trkpt lat="50.29579" lon="4.38358">
        <ele>165.96</ele>
        <time>2017-04-17T09:24:22Z</time>
      </trkpt>
      <trkpt lat="50.29586" lon="4.38326">
        <ele>167.89</ele>
        <time>2017-04-17T09:24:40Z</time>
      </trkpt>
      <trkpt lat="50.29593" lon="4.38289">
        <ele>169.33</ele>
        <time>2017-04-17T09:25:00Z</time>
      </trkpt>
      <trkpt lat="50.29596" lon="4.3827">
        <ele>170.29</ele>
        <time>2017-04-17T09:25:12Z</time>
      </trkpt>
      <trkpt lat="50.29599" lon="4.3826">
        <ele>171.25</ele>
        <time>2017-04-17T09:25:18Z</time>
      </trkpt>
      <trkpt lat="50.29601" lon="4.38247">
        <ele>172.69</ele>
        <time>2017-04-17T09:25:26Z</time>
      </trkpt>
      <trkpt lat="50.29584" lon="4.38233">
        <ele>172.69</ele>
        <time>2017-04-17T09:25:43Z</time>
      </trkpt>
      <trkpt lat="50.2956" lon="4.38233">
        <ele>172.69</ele>
        <time>2017-04-17T09:26:02Z</time>
      </trkpt>
      <trkpt lat="50.29536" lon="4.38239">
        <ele>173.17</ele>
        <time>2017-04-17T09:26:21Z</time>
      </trkpt>
      <trkpt lat="50.29512" lon="4.38245">
        <ele>173.66</ele>
        <time>2017-04-17T09:26:39Z</time>
      </trkpt>
      <trkpt lat="50.29488" lon="4.38249">
        <ele>174.14</ele>
        <time>2017-04-17T09:26:58Z</time>
      </trkpt>
      <trkpt lat="50.29464" lon="4.38255">
        <ele>174.14</ele>
        <time>2017-04-17T09:27:17Z</time>
      </trkpt>
      <trkpt lat="50.29441" lon="4.38259">
        <ele>174.62</ele>
        <time>2017-04-17T09:27:36Z</time>
      </trkpt>
      <trkpt lat="50.29415" lon="4.38265">
        <ele>176.06</ele>
        <time>2017-04-17T09:27:56Z</time>
      </trkpt>
      <trkpt lat="50.29392" lon="4.38272">
        <ele>176.54</ele>
        <time>2017-04-17T09:28:15Z</time>
      </trkpt>
      <trkpt lat="50.29364" lon="4.38277">
        <ele>177.98</ele>
        <time>2017-04-17T09:28:36Z</time>
      </trkpt>
      <trkpt lat="50.29342" lon="4.38282">
        <ele>179.42</ele>
        <time>2017-04-17T09:28:53Z</time>
      </trkpt>
      <trkpt lat="50.29317" lon="4.38284">
        <ele>181.35</ele>
        <time>2017-04-17T09:29:13Z</time>
      </trkpt>
      <trkpt lat="50.29292" lon="4.38282">
        <ele>184.23</ele>
        <time>2017-04-17T09:29:32Z</time>
      </trkpt>
      <trkpt lat="50.29266" lon="4.38281">
        <ele>184.71</ele>
        <time>2017-04-17T09:29:52Z</time>
      </trkpt>
      <trkpt lat="50.29241" lon="4.38282">
        <ele>185.67</ele>
        <time>2017-04-17T09:30:11Z</time>
      </trkpt>
      <trkpt lat="50.29215" lon="4.3828">
        <ele>186.63</ele>
        <time>2017-04-17T09:30:31Z</time>
      </trkpt>
      <trkpt lat="50.29189" lon="4.3828">
        <ele>186.63</ele>
        <time>2017-04-17T09:30:51Z</time>
      </trkpt>
      <trkpt lat="50.29174" lon="4.3828">
        <ele>185.19</ele>
        <time>2017-04-17T09:31:02Z</time>
      </trkpt>
      <trkpt lat="50.29152" lon="4.38281">
        <ele>185.19</ele>
        <time>2017-04-17T09:31:19Z</time>
      </trkpt>
      <trkpt lat="50.29129" lon="4.38281">
        <ele>184.23</ele>
        <time>2017-04-17T09:31:37Z</time>
      </trkpt>
      <trkpt lat="50.29106" lon="4.38282">
        <ele>183.75</ele>
        <time>2017-04-17T09:31:55Z</time>
      </trkpt>
      <trkpt lat="50.29084" lon="4.3828">
        <ele>182.79</ele>
        <time>2017-04-17T09:32:12Z</time>
      </trkpt>
      <trkpt lat="50.29058" lon="4.38274">
        <ele>181.35</ele>
        <time>2017-04-17T09:32:32Z</time>
      </trkpt>
      <trkpt lat="50.29031" lon="4.38263">
        <ele>180.38</ele>
        <time>2017-04-17T09:32:53Z</time>
      </trkpt>
      <trkpt lat="50.29009" lon="4.38253">
        <ele>180.38</ele>
        <time>2017-04-17T09:33:11Z</time>
      </trkpt>
      <trkpt lat="50.28986" lon="4.38244">
        <ele>178.94</ele>
        <time>2017-04-17T09:33:30Z</time>
      </trkpt>
      <trkpt lat="50.28964" lon="4.38238">
        <ele>177.5</ele>
        <time>2017-04-17T09:33:47Z</time>
      </trkpt>
      <trkpt lat="50.28942" lon="4.38233">
        <ele>176.54</ele>
        <time>2017-04-17T09:34:05Z</time>
      </trkpt>
      <trkpt lat="50.28919" lon="4.38233">
        <ele>176.06</ele>
        <time>2017-04-17T09:34:23Z</time>
      </trkpt>
      <trkpt lat="50.28898" lon="4.38236">
        <ele>176.06</ele>
        <time>2017-04-17T09:34:40Z</time>
      </trkpt>
      <trkpt lat="50.28874" lon="4.38248">
        <ele>176.06</ele>
        <time>2017-04-17T09:35:00Z</time>
      </trkpt>
      <trkpt lat="50.28851" lon="4.38263">
        <ele>175.58</ele>
        <time>2017-04-17T09:35:19Z</time>
      </trkpt>
      <trkpt lat="50.28826" lon="4.38279">
        <ele>175.1</ele>
        <time>2017-04-17T09:35:40Z</time>
      </trkpt>
      <trkpt lat="50.28801" lon="4.38293">
        <ele>174.14</ele>
        <time>2017-04-17T09:36:00Z</time>
      </trkpt>
      <trkpt lat="50.2878" lon="4.38305">
        <ele>173.17</ele>
        <time>2017-04-17T09:36:17Z</time>
      </trkpt>
      <trkpt lat="50.28757" lon="4.38316">
        <ele>171.25</ele>
        <time>2017-04-17T09:36:35Z</time>
      </trkpt>
      <trkpt lat="50.28737" lon="4.38325">
        <ele>169.33</ele>
        <time>2017-04-17T09:36:53Z</time>
      </trkpt>
      <trkpt lat="50.28716" lon="4.38326">
        <ele>167.89</ele>
        <time>2017-04-17T09:37:10Z</time>
      </trkpt>
      <trkpt lat="50.28697" lon="4.38319">
        <ele>165.96</ele>
        <time>2017-04-17T09:37:26Z</time>
      </trkpt>
      <trkpt lat="50.28682" lon="4.38313">
        <ele>164.04</ele>
        <time>2017-04-17T09:37:42Z</time>
      </trkpt>
      <trkpt lat="50.28668" lon="4.38303">
        <ele>162.12</ele>
        <time>2017-04-17T09:37:54Z</time>
      </trkpt>
      <trkpt lat="50.28652" lon="4.38283">
        <ele>160.2</ele>
        <time>2017-04-17T09:38:11Z</time>
      </trkpt>
      <trkpt lat="50.2864" lon="4.38256">
        <ele>159.72</ele>
        <time>2017-04-17T09:38:28Z</time>
      </trkpt>
      <trkpt lat="50.28627" lon="4.38238">
        <ele>159.72</ele>
        <time>2017-04-17T09:38:43Z</time>
      </trkpt>
      <trkpt lat="50.28613" lon="4.38212">
        <ele>159.72</ele>
        <time>2017-04-17T09:38:58Z</time>
      </trkpt>
      <trkpt lat="50.28603" lon="4.3819">
        <ele>160.2</ele>
        <time>2017-04-17T09:39:13Z</time>
      </trkpt>
      <trkpt lat="50.28604" lon="4.38193">
        <ele>160.2</ele>
        <time>2017-04-17T09:39:15Z</time>
      </trkpt>
      <trkpt lat="50.28601" lon="4.38205">
        <ele>160.2</ele>
        <time>2017-04-17T09:39:22Z</time>
      </trkpt>
      <trkpt lat="50.28584" lon="4.38226">
        <ele>160.2</ele>
        <time>2017-04-17T09:39:38Z</time>
      </trkpt>
      <trkpt lat="50.28574" lon="4.3825">
        <ele>159.72</ele>
        <time>2017-04-17T09:39:53Z</time>
      </trkpt>
      <trkpt lat="50.28575" lon="4.38277">
        <ele>158.27</ele>
        <time>2017-04-17T09:40:07Z</time>
      </trkpt>
      <trkpt lat="50.28576" lon="4.3828">
        <ele>158.27</ele>
        <time>2017-04-17T09:40:09Z</time>
      </trkpt>
      <trkpt lat="50.28583" lon="4.38306">
        <ele>158.27</ele>
        <time>2017-04-17T09:40:24Z</time>
      </trkpt>
      <trkpt lat="50.28586" lon="4.38321">
        <ele>158.27</ele>
        <time>2017-04-17T09:40:32Z</time>
      </trkpt>
      <trkpt lat="50.28589" lon="4.3833">
        <ele>158.27</ele>
        <time>2017-04-17T09:40:38Z</time>
      </trkpt>
      <trkpt lat="50.28591" lon="4.38335">
        <ele>158.27</ele>
        <time>2017-04-17T09:40:42Z</time>
      </trkpt>
      <trkpt lat="50.28597" lon="4.38361">
        <ele>160.2</ele>
        <time>2017-04-17T09:40:57Z</time>
      </trkpt>
      <trkpt lat="50.28599" lon="4.38388">
        <ele>161.64</ele>
        <time>2017-04-17T09:41:11Z</time>
      </trkpt>
      <trkpt lat="50.28603" lon="4.38415">
        <ele>163.08</ele>
        <time>2017-04-17T09:41:26Z</time>
      </trkpt>
      <trkpt lat="50.28606" lon="4.38443">
        <ele>164.04</ele>
        <time>2017-04-17T09:41:40Z</time>
      </trkpt>
      <trkpt lat="50.28609" lon="4.38466">
        <ele>165.48</ele>
        <time>2017-04-17T09:41:52Z</time>
      </trkpt>
      <trkpt lat="50.28613" lon="4.38494">
        <ele>166.93</ele>
        <time>2017-04-17T09:42:06Z</time>
      </trkpt>
      <trkpt lat="50.28615" lon="4.38509">
        <ele>167.89</ele>
        <time>2017-04-17T09:42:13Z</time>
      </trkpt>
      <trkpt lat="50.28618" lon="4.38545">
        <ele>168.85</ele>
        <time>2017-04-17T09:42:29Z</time>
      </trkpt>
      <trkpt lat="50.28624" lon="4.38578">
        <ele>169.81</ele>
        <time>2017-04-17T09:42:45Z</time>
      </trkpt>
      <trkpt lat="50.28629" lon="4.38607">
        <ele>170.29</ele>
        <time>2017-04-17T09:42:59Z</time>
      </trkpt>
      <trkpt lat="50.28635" lon="4.3864">
        <ele>170.77</ele>
        <time>2017-04-17T09:43:16Z</time>
      </trkpt>
      <trkpt lat="50.2864" lon="4.38675">
        <ele>171.73</ele>
        <time>2017-04-17T09:43:34Z</time>
      </trkpt>
      <trkpt lat="50.28645" lon="4.38713">
        <ele>172.21</ele>
        <time>2017-04-17T09:43:53Z</time>
      </trkpt>
      <trkpt lat="50.28648" lon="4.38747">
        <ele>173.17</ele>
        <time>2017-04-17T09:44:10Z</time>
      </trkpt>
      <trkpt lat="50.28653" lon="4.38782">
        <ele>173.66</ele>
        <time>2017-04-17T09:44:28Z</time>
      </trkpt>
      <trkpt lat="50.28657" lon="4.38818">
        <ele>174.62</ele>
        <time>2017-04-17T09:44:46Z</time>
      </trkpt>
      <trkpt lat="50.28658" lon="4.38857">
        <ele>175.58</ele>
        <time>2017-04-17T09:45:05Z</time>
      </trkpt>
      <trkpt lat="50.28657" lon="4.38869">
        <ele>176.06</ele>
        <time>2017-04-17T09:45:11Z</time>
      </trkpt>
      <trkpt lat="50.28656" lon="4.3888">
        <ele>176.54</ele>
        <time>2017-04-17T09:45:17Z</time>
      </trkpt>
      <trkpt lat="50.28657" lon="4.38913">
        <ele>177.5</ele>
        <time>2017-04-17T09:45:34Z</time>
      </trkpt>
      <trkpt lat="50.28657" lon="4.38949">
        <ele>177.98</ele>
        <time>2017-04-17T09:45:52Z</time>
      </trkpt>
      <trkpt lat="50.28656" lon="4.38981">
        <ele>178.46</ele>
        <time>2017-04-17T09:46:08Z</time>
      </trkpt>
      <trkpt lat="50.28649" lon="4.39015">
        <ele>180.38</ele>
        <time>2017-04-17T09:46:26Z</time>
      </trkpt>
      <trkpt lat="50.28636" lon="4.39043">
        <ele>180.38</ele>
        <time>2017-04-17T09:46:43Z</time>
      </trkpt>
      <trkpt lat="50.28622" lon="4.39069">
        <ele>181.35</ele>
        <time>2017-04-17T09:47:00Z</time>
      </trkpt>
      <trkpt lat="50.28613" lon="4.39086">
        <ele>181.35</ele>
        <time>2017-04-17T09:47:13Z</time>
      </trkpt>
      <trkpt lat="50.28601" lon="4.39114">
        <ele>182.31</ele>
        <time>2017-04-17T09:47:30Z</time>
      </trkpt>
      <trkpt lat="50.28594" lon="4.39138">
        <ele>182.79</ele>
        <time>2017-04-17T09:47:44Z</time>
      </trkpt>
      <trkpt lat="50.28591" lon="4.39172">
        <ele>181.35</ele>
        <time>2017-04-17T09:48:01Z</time>
      </trkpt>
      <trkpt lat="50.28591" lon="4.39207">
        <ele>180.38</ele>
        <time>2017-04-17T09:48:18Z</time>
      </trkpt>
      <trkpt lat="50.28593" lon="4.3924">
        <ele>179.9</ele>
        <time>2017-04-17T09:48:34Z</time>
      </trkpt>
      <trkpt lat="50.28595" lon="4.3927">
        <ele>179.42</ele>
        <time>2017-04-17T09:48:49Z</time>
      </trkpt>
      <trkpt lat="50.28599" lon="4.393">
        <ele>178.46</ele>
        <time>2017-04-17T09:49:05Z</time>
      </trkpt>
      <trkpt lat="50.28602" lon="4.39333">
        <ele>178.94</ele>
        <time>2017-04-17T09:49:21Z</time>
      </trkpt>
      <trkpt lat="50.28608" lon="4.39365">
        <ele>178.94</ele>
        <time>2017-04-17T09:49:39Z</time>
      </trkpt>
      <trkpt lat="50.28612" lon="4.394">
        <ele>180.87</ele>
        <time>2017-04-17T09:49:55Z</time>
      </trkpt>
      <trkpt lat="50.28614" lon="4.39413">
        <ele>179.42</ele>
        <time>2017-04-17T09:50:01Z</time>
      </trkpt>
      <trkpt lat="50.28618" lon="4.39442">
        <ele>179.42</ele>
        <time>2017-04-17T09:50:16Z</time>
      </trkpt>
      <trkpt lat="50.28619" lon="4.39479">
        <ele>177.98</ele>
        <time>2017-04-17T09:50:34Z</time>
      </trkpt>
      <trkpt lat="50.28618" lon="4.3952">
        <ele>176.54</ele>
        <time>2017-04-17T09:50:54Z</time>
      </trkpt>
      <trkpt lat="50.28617" lon="4.39555">
        <ele>175.58</ele>
        <time>2017-04-17T09:51:11Z</time>
      </trkpt>
      <trkpt lat="50.28616" lon="4.39589">
        <ele>175.1</ele>
        <time>2017-04-17T09:51:28Z</time>
      </trkpt>
      <trkpt lat="50.28613" lon="4.39623">
        <ele>174.62</ele>
        <time>2017-04-17T09:51:46Z</time>
      </trkpt>
      <trkpt lat="50.28609" lon="4.39654">
        <ele>174.14</ele>
        <time>2017-04-17T09:52:02Z</time>
      </trkpt>
      <trkpt lat="50.28605" lon="4.3969">
        <ele>173.17</ele>
        <time>2017-04-17T09:52:21Z</time>
      </trkpt>
      <trkpt lat="50.28601" lon="4.39721">
        <ele>173.17</ele>
        <time>2017-04-17T09:52:37Z</time>
      </trkpt>
      <trkpt lat="50.28597" lon="4.39757">
        <ele>173.66</ele>
        <time>2017-04-17T09:52:55Z</time>
      </trkpt>
      <trkpt lat="50.28597" lon="4.3979">
        <ele>173.17</ele>
        <time>2017-04-17T09:53:12Z</time>
      </trkpt>
      <trkpt lat="50.28601" lon="4.39828">
        <ele>172.69</ele>
        <time>2017-04-17T09:53:31Z</time>
      </trkpt>
      <trkpt lat="50.28602" lon="4.3986">
        <ele>172.69</ele>
        <time>2017-04-17T09:53:47Z</time>
      </trkpt>
      <trkpt lat="50.28604" lon="4.39894">
        <ele>172.69</ele>
        <time>2017-04-17T09:54:04Z</time>
      </trkpt>
      <trkpt lat="50.28603" lon="4.39933">
        <ele>172.69</ele>
        <time>2017-04-17T09:54:23Z</time>
      </trkpt>
      <trkpt lat="50.286" lon="4.39971">
        <ele>172.21</ele>
        <time>2017-04-17T09:54:42Z</time>
      </trkpt>
      <trkpt lat="50.28595" lon="4.40005">
        <ele>172.21</ele>
        <time>2017-04-17T09:54:59Z</time>
      </trkpt>
      <trkpt lat="50.28584" lon="4.40038">
        <ele>171.73</ele>
        <time>2017-04-17T09:55:17Z</time>
      </trkpt>
      <trkpt lat="50.28571" lon="4.40065">
        <ele>171.25</ele>
        <time>2017-04-17T09:55:33Z</time>
      </trkpt>
      <trkpt lat="50.28564" lon="4.40095">
        <ele>171.25</ele>
        <time>2017-04-17T09:55:50Z</time>
      </trkpt>
      <trkpt lat="50.28556" lon="4.40132">
        <ele>171.25</ele>
        <time>2017-04-17T09:56:09Z</time>
      </trkpt>
      <trkpt lat="50.28545" lon="4.40163">
        <ele>171.25</ele>
        <time>2017-04-17T09:56:26Z</time>
      </trkpt>
      <trkpt lat="50.2853" lon="4.40191">
        <ele>170.77</ele>
        <time>2017-04-17T09:56:45Z</time>
      </trkpt>
      <trkpt lat="50.28515" lon="4.40209">
        <ele>169.81</ele>
        <time>2017-04-17T09:57:00Z</time>
      </trkpt>
      <trkpt lat="50.28496" lon="4.40227">
        <ele>168.85</ele>
        <time>2017-04-17T09:57:16Z</time>
      </trkpt>
      <trkpt lat="50.28479" lon="4.40247">
        <ele>167.41</ele>
        <time>2017-04-17T09:57:33Z</time>
      </trkpt>
      <trkpt lat="50.28463" lon="4.40268">
        <ele>165.96</ele>
        <time>2017-04-17T09:57:50Z</time>
      </trkpt>
      <trkpt lat="50.28455" lon="4.40279">
        <ele>165</ele>
        <time>2017-04-17T09:57:59Z</time>
      </trkpt>
      <trkpt lat="50.28456" lon="4.40288">
        <ele>165</ele>
        <time>2017-04-17T09:58:07Z</time>
      </trkpt>
      <trkpt lat="50.28458" lon="4.40309">
        <ele>164.04</ele>
        <time>2017-04-17T09:58:23Z</time>
      </trkpt>
      <trkpt lat="50.28457" lon="4.40314">
        <ele>164.04</ele>
        <time>2017-04-17T09:58:32Z</time>
      </trkpt>
      <trkpt lat="50.28458" lon="4.40317">
        <ele>164.04</ele>
        <time>2017-04-17T09:58:35Z</time>
      </trkpt>
      <trkpt lat="50.28455" lon="4.40326">
        <ele>164.04</ele>
        <time>2017-04-17T09:58:45Z</time>
      </trkpt>
      <trkpt lat="50.28456" lon="4.40337">
        <ele>164.04</ele>
        <time>2017-04-17T09:58:57Z</time>
      </trkpt>
      <trkpt lat="50.28464" lon="4.40337">
        <ele>164.04</ele>
        <time>2017-04-17T09:59:20Z</time>
      </trkpt>
      <trkpt lat="50.28454" lon="4.40328">
        <ele>164.52</ele>
        <time>2017-04-17T09:59:40Z</time>
      </trkpt>
      <trkpt lat="50.28459" lon="4.40331">
        <ele>164.52</ele>
        <time>2017-04-17T09:59:54Z</time>
      </trkpt>
      <trkpt lat="50.28463" lon="4.40339">
        <ele>164.04</ele>
        <time>2017-04-17T10:00:26Z</time>
      </trkpt>
      <trkpt lat="50.28462" lon="4.40326">
        <ele>164.04</ele>
        <time>2017-04-17T10:00:29Z</time>
      </trkpt>
      <trkpt lat="50.2846" lon="4.40321">
        <ele>164.04</ele>
        <time>2017-04-17T10:00:34Z</time>
      </trkpt>
      <trkpt lat="50.28451" lon="4.40309">
        <ele>164.04</ele>
        <time>2017-04-17T10:00:44Z</time>
      </trkpt>
      <trkpt lat="50.28443" lon="4.40309">
        <ele>164.04</ele>
        <time>2017-04-17T10:00:51Z</time>
      </trkpt>
      <trkpt lat="50.28423" lon="4.40323">
        <ele>164.04</ele>
        <time>2017-04-17T10:01:09Z</time>
      </trkpt>
      <trkpt lat="50.28406" lon="4.40349">
        <ele>164.04</ele>
        <time>2017-04-17T10:01:27Z</time>
      </trkpt>
      <trkpt lat="50.28391" lon="4.40372">
        <ele>164.04</ele>
        <time>2017-04-17T10:01:45Z</time>
      </trkpt>
      <trkpt lat="50.28377" lon="4.40393">
        <ele>165.48</ele>
        <time>2017-04-17T10:02:02Z</time>
      </trkpt>
      <trkpt lat="50.28363" lon="4.40421">
        <ele>165.96</ele>
        <time>2017-04-17T10:02:19Z</time>
      </trkpt>
      <trkpt lat="50.28358" lon="4.40445">
        <ele>164.52</ele>
        <time>2017-04-17T10:02:30Z</time>
      </trkpt>
      <trkpt lat="50.28358" lon="4.40454">
        <ele>164.04</ele>
        <time>2017-04-17T10:02:34Z</time>
      </trkpt>
      <trkpt lat="50.28354" lon="4.40489">
        <ele>162.12</ele>
        <time>2017-04-17T10:02:51Z</time>
      </trkpt>
      <trkpt lat="50.2835" lon="4.40518">
        <ele>160.68</ele>
        <time>2017-04-17T10:03:06Z</time>
      </trkpt>
      <trkpt lat="50.28345" lon="4.40548">
        <ele>158.75</ele>
        <time>2017-04-17T10:03:22Z</time>
      </trkpt>
      <trkpt lat="50.28334" lon="4.40571">
        <ele>157.31</ele>
        <time>2017-04-17T10:03:37Z</time>
      </trkpt>
      <trkpt lat="50.28321" lon="4.40595">
        <ele>155.39</ele>
        <time>2017-04-17T10:03:53Z</time>
      </trkpt>
      <trkpt lat="50.28307" lon="4.40619">
        <ele>153.47</ele>
        <time>2017-04-17T10:04:10Z</time>
      </trkpt>
      <trkpt lat="50.28296" lon="4.40643">
        <ele>151.54</ele>
        <time>2017-04-17T10:04:26Z</time>
      </trkpt>
      <trkpt lat="50.28297" lon="4.40674">
        <ele>150.1</ele>
        <time>2017-04-17T10:04:42Z</time>
      </trkpt>
      <trkpt lat="50.28305" lon="4.40699">
        <ele>148.66</ele>
        <time>2017-04-17T10:04:56Z</time>
      </trkpt>
      <trkpt lat="50.28307" lon="4.40728">
        <ele>147.7</ele>
        <time>2017-04-17T10:05:11Z</time>
      </trkpt>
      <trkpt lat="50.28292" lon="4.40752">
        <ele>147.22</ele>
        <time>2017-04-17T10:05:27Z</time>
      </trkpt>
      <trkpt lat="50.28278" lon="4.40774">
        <ele>146.74</ele>
        <time>2017-04-17T10:05:41Z</time>
      </trkpt>
      <trkpt lat="50.28265" lon="4.40798">
        <ele>146.74</ele>
        <time>2017-04-17T10:05:57Z</time>
      </trkpt>
      <trkpt lat="50.2825" lon="4.40821">
        <ele>147.22</ele>
        <time>2017-04-17T10:06:13Z</time>
      </trkpt>
      <trkpt lat="50.28235" lon="4.40843">
        <ele>146.74</ele>
        <time>2017-04-17T10:06:30Z</time>
      </trkpt>
      <trkpt lat="50.28221" lon="4.40858">
        <ele>146.74</ele>
        <time>2017-04-17T10:06:44Z</time>
      </trkpt>
      <trkpt lat="50.28199" lon="4.40877">
        <ele>146.74</ele>
        <time>2017-04-17T10:07:02Z</time>
      </trkpt>
      <trkpt lat="50.28176" lon="4.40891">
        <ele>146.74</ele>
        <time>2017-04-17T10:07:20Z</time>
      </trkpt>
      <trkpt lat="50.28156" lon="4.40906">
        <ele>146.74</ele>
        <time>2017-04-17T10:07:36Z</time>
      </trkpt>
      <trkpt lat="50.28137" lon="4.4092">
        <ele>146.74</ele>
        <time>2017-04-17T10:07:52Z</time>
      </trkpt>
      <trkpt lat="50.28124" lon="4.40932">
        <ele>146.74</ele>
        <time>2017-04-17T10:08:06Z</time>
      </trkpt>
      <trkpt lat="50.28106" lon="4.40944">
        <ele>146.74</ele>
        <time>2017-04-17T10:08:22Z</time>
      </trkpt>
      <trkpt lat="50.28093" lon="4.4095">
        <ele>148.18</ele>
        <time>2017-04-17T10:08:34Z</time>
      </trkpt>
      <trkpt lat="50.28074" lon="4.40954">
        <ele>150.1</ele>
        <time>2017-04-17T10:08:51Z</time>
      </trkpt>
      <trkpt lat="50.28063" lon="4.40952">
        <ele>150.58</ele>
        <time>2017-04-17T10:09:02Z</time>
      </trkpt>
      <trkpt lat="50.28037" lon="4.40952">
        <ele>152.03</ele>
        <time>2017-04-17T10:09:21Z</time>
      </trkpt>
      <trkpt lat="50.28021" lon="4.40952">
        <ele>152.99</ele>
        <time>2017-04-17T10:09:38Z</time>
      </trkpt>
      <trkpt lat="50.28004" lon="4.40953">
        <ele>154.43</ele>
        <time>2017-04-17T10:09:54Z</time>
      </trkpt>
      <trkpt lat="50.27985" lon="4.40959">
        <ele>154.43</ele>
        <time>2017-04-17T10:10:10Z</time>
      </trkpt>
      <trkpt lat="50.27969" lon="4.40961">
        <ele>154.43</ele>
        <time>2017-04-17T10:10:24Z</time>
      </trkpt>
      <trkpt lat="50.27951" lon="4.4096">
        <ele>152.51</ele>
        <time>2017-04-17T10:10:38Z</time>
      </trkpt>
      <trkpt lat="50.27931" lon="4.40955">
        <ele>151.54</ele>
        <time>2017-04-17T10:10:54Z</time>
      </trkpt>
      <trkpt lat="50.2791" lon="4.40951">
        <ele>150.58</ele>
        <time>2017-04-17T10:11:11Z</time>
      </trkpt>
      <trkpt lat="50.27899" lon="4.40945">
        <ele>149.62</ele>
        <time>2017-04-17T10:11:20Z</time>
      </trkpt>
      <trkpt lat="50.2788" lon="4.40934">
        <ele>148.66</ele>
        <time>2017-04-17T10:11:35Z</time>
      </trkpt>
      <trkpt lat="50.27862" lon="4.40921">
        <ele>147.7</ele>
        <time>2017-04-17T10:11:51Z</time>
      </trkpt>
      <trkpt lat="50.27844" lon="4.4091">
        <ele>147.7</ele>
        <time>2017-04-17T10:12:06Z</time>
      </trkpt>
      <trkpt lat="50.27831" lon="4.40899">
        <ele>147.22</ele>
        <time>2017-04-17T10:12:18Z</time>
      </trkpt>
      <trkpt lat="50.27816" lon="4.40886">
        <ele>147.22</ele>
        <time>2017-04-17T10:12:33Z</time>
      </trkpt>
      <trkpt lat="50.27805" lon="4.40866">
        <ele>147.22</ele>
        <time>2017-04-17T10:12:48Z</time>
      </trkpt>
      <trkpt lat="50.27802" lon="4.40858">
        <ele>147.22</ele>
        <time>2017-04-17T10:12:52Z</time>
      </trkpt>
      <trkpt lat="50.27792" lon="4.40822">
        <ele>147.22</ele>
        <time>2017-04-17T10:13:10Z</time>
      </trkpt>
      <trkpt lat="50.27785" lon="4.40802">
        <ele>147.22</ele>
        <time>2017-04-17T10:13:22Z</time>
      </trkpt>
      <trkpt lat="50.27774" lon="4.4078">
        <ele>147.22</ele>
        <time>2017-04-17T10:13:37Z</time>
      </trkpt>
      <trkpt lat="50.2775" lon="4.40759">
        <ele>147.22</ele>
        <time>2017-04-17T10:13:55Z</time>
      </trkpt>
      <trkpt lat="50.27749" lon="4.40758">
        <ele>147.22</ele>
        <time>2017-04-17T10:13:56Z</time>
      </trkpt>
      <trkpt lat="50.2773" lon="4.40736">
        <ele>147.22</ele>
        <time>2017-04-17T10:14:13Z</time>
      </trkpt>
      <trkpt lat="50.27713" lon="4.40728">
        <ele>146.74</ele>
        <time>2017-04-17T10:14:27Z</time>
      </trkpt>
      <trkpt lat="50.27711" lon="4.40727">
        <ele>146.74</ele>
        <time>2017-04-17T10:14:29Z</time>
      </trkpt>
      <trkpt lat="50.27686" lon="4.40727">
        <ele>147.22</ele>
        <time>2017-04-17T10:14:46Z</time>
      </trkpt>
      <trkpt lat="50.27671" lon="4.40731">
        <ele>148.18</ele>
        <time>2017-04-17T10:14:59Z</time>
      </trkpt>
      <trkpt lat="50.27671" lon="4.40734">
        <ele>148.18</ele>
        <time>2017-04-17T10:15:01Z</time>
      </trkpt>
      <trkpt lat="50.27681" lon="4.40766">
        <ele>146.74</ele>
        <time>2017-04-17T10:15:18Z</time>
      </trkpt>
      <trkpt lat="50.27676" lon="4.40793">
        <ele>146.26</ele>
        <time>2017-04-17T10:15:32Z</time>
      </trkpt>
      <trkpt lat="50.27665" lon="4.40813">
        <ele>145.78</ele>
        <time>2017-04-17T10:15:47Z</time>
      </trkpt>
      <trkpt lat="50.27664" lon="4.40818">
        <ele>147.22</ele>
        <time>2017-04-17T10:15:50Z</time>
      </trkpt>
      <trkpt lat="50.27654" lon="4.40846">
        <ele>148.66</ele>
        <time>2017-04-17T10:16:07Z</time>
      </trkpt>
      <trkpt lat="50.27652" lon="4.4085">
        <ele>148.66</ele>
        <time>2017-04-17T10:16:09Z</time>
      </trkpt>
      <trkpt lat="50.27644" lon="4.40871">
        <ele>148.66</ele>
        <time>2017-04-17T10:16:24Z</time>
      </trkpt>
      <trkpt lat="50.27635" lon="4.40895">
        <ele>149.14</ele>
        <time>2017-04-17T10:16:38Z</time>
      </trkpt>
      <trkpt lat="50.27627" lon="4.40922">
        <ele>149.14</ele>
        <time>2017-04-17T10:16:53Z</time>
      </trkpt>
      <trkpt lat="50.27629" lon="4.40954">
        <ele>149.62</ele>
        <time>2017-04-17T10:17:09Z</time>
      </trkpt>
      <trkpt lat="50.27631" lon="4.40988">
        <ele>151.06</ele>
        <time>2017-04-17T10:17:25Z</time>
      </trkpt>
      <trkpt lat="50.27634" lon="4.41023">
        <ele>152.51</ele>
        <time>2017-04-17T10:17:42Z</time>
      </trkpt>
      <trkpt lat="50.27638" lon="4.41056">
        <ele>152.99</ele>
        <time>2017-04-17T10:17:58Z</time>
      </trkpt>
      <trkpt lat="50.27643" lon="4.4109">
        <ele>154.91</ele>
        <time>2017-04-17T10:18:15Z</time>
      </trkpt>
      <trkpt lat="50.27651" lon="4.41121">
        <ele>155.87</ele>
        <time>2017-04-17T10:18:31Z</time>
      </trkpt>
      <trkpt lat="50.27666" lon="4.41146">
        <ele>156.83</ele>
        <time>2017-04-17T10:18:48Z</time>
      </trkpt>
      <trkpt lat="50.27682" lon="4.41168">
        <ele>157.79</ele>
        <time>2017-04-17T10:19:05Z</time>
      </trkpt>
      <trkpt lat="50.277" lon="4.41195">
        <ele>159.72</ele>
        <time>2017-04-17T10:19:24Z</time>
      </trkpt>
      <trkpt lat="50.27715" lon="4.41218">
        <ele>160.68</ele>
        <time>2017-04-17T10:19:40Z</time>
      </trkpt>
      <trkpt lat="50.27731" lon="4.41242">
        <ele>161.64</ele>
        <time>2017-04-17T10:19:57Z</time>
      </trkpt>
      <trkpt lat="50.27747" lon="4.41265">
        <ele>162.6</ele>
        <time>2017-04-17T10:20:13Z</time>
      </trkpt>
      <trkpt lat="50.27763" lon="4.41289">
        <ele>163.56</ele>
        <time>2017-04-17T10:20:30Z</time>
      </trkpt>
      <trkpt lat="50.27777" lon="4.41314">
        <ele>165</ele>
        <time>2017-04-17T10:20:47Z</time>
      </trkpt>
      <trkpt lat="50.27784" lon="4.41325">
        <ele>165.96</ele>
        <time>2017-04-17T10:21:02Z</time>
      </trkpt>
      <trkpt lat="50.27786" lon="4.41333">
        <ele>165.96</ele>
        <time>2017-04-17T10:21:07Z</time>
      </trkpt>
      <trkpt lat="50.27803" lon="4.41364">
        <ele>166.45</ele>
        <time>2017-04-17T10:21:26Z</time>
      </trkpt>
      <trkpt lat="50.27817" lon="4.41393">
        <ele>167.41</ele>
        <time>2017-04-17T10:21:44Z</time>
      </trkpt>
      <trkpt lat="50.27827" lon="4.41414">
        <ele>167.41</ele>
        <time>2017-04-17T10:21:57Z</time>
      </trkpt>
      <trkpt lat="50.2783" lon="4.41421">
        <ele>167.41</ele>
        <time>2017-04-17T10:22:01Z</time>
      </trkpt>
      <trkpt lat="50.27841" lon="4.41449">
        <ele>168.85</ele>
        <time>2017-04-17T10:22:17Z</time>
      </trkpt>
      <trkpt lat="50.2785" lon="4.41479">
        <ele>169.81</ele>
        <time>2017-04-17T10:22:34Z</time>
      </trkpt>
      <trkpt lat="50.27852" lon="4.41513">
        <ele>169.81</ele>
        <time>2017-04-17T10:22:50Z</time>
      </trkpt>
      <trkpt lat="50.27854" lon="4.41549">
        <ele>170.77</ele>
        <time>2017-04-17T10:23:07Z</time>
      </trkpt>
      <trkpt lat="50.27854" lon="4.41576">
        <ele>171.73</ele>
        <time>2017-04-17T10:23:21Z</time>
      </trkpt>
      <trkpt lat="50.27857" lon="4.4161">
        <ele>172.21</ele>
        <time>2017-04-17T10:23:37Z</time>
      </trkpt>
      <trkpt lat="50.27859" lon="4.4164">
        <ele>172.69</ele>
        <time>2017-04-17T10:23:51Z</time>
      </trkpt>
      <trkpt lat="50.27862" lon="4.41674">
        <ele>173.66</ele>
        <time>2017-04-17T10:24:07Z</time>
      </trkpt>
      <trkpt lat="50.27872" lon="4.41705">
        <ele>174.14</ele>
        <time>2017-04-17T10:24:24Z</time>
      </trkpt>
      <trkpt lat="50.27884" lon="4.41728">
        <ele>174.62</ele>
        <time>2017-04-17T10:24:39Z</time>
      </trkpt>
      <trkpt lat="50.27898" lon="4.41752">
        <ele>174.62</ele>
        <time>2017-04-17T10:24:55Z</time>
      </trkpt>
      <trkpt lat="50.27905" lon="4.41771">
        <ele>174.62</ele>
        <time>2017-04-17T10:25:07Z</time>
      </trkpt>
      <trkpt lat="50.27902" lon="4.41778">
        <ele>174.62</ele>
        <time>2017-04-17T10:25:13Z</time>
      </trkpt>
      <trkpt lat="50.27894" lon="4.41789">
        <ele>175.1</ele>
        <time>2017-04-17T10:25:21Z</time>
      </trkpt>
      <trkpt lat="50.27888" lon="4.41829">
        <ele>175.1</ele>
        <time>2017-04-17T10:25:41Z</time>
      </trkpt>
      <trkpt lat="50.27886" lon="4.41861">
        <ele>175.1</ele>
        <time>2017-04-17T10:25:57Z</time>
      </trkpt>
      <trkpt lat="50.27882" lon="4.41898">
        <ele>175.58</ele>
        <time>2017-04-17T10:26:15Z</time>
      </trkpt>
      <trkpt lat="50.27874" lon="4.41941">
        <ele>174.14</ele>
        <time>2017-04-17T10:26:36Z</time>
      </trkpt>
      <trkpt lat="50.27863" lon="4.41971">
        <ele>174.14</ele>
        <time>2017-04-17T10:26:54Z</time>
      </trkpt>
      <trkpt lat="50.27847" lon="4.42">
        <ele>174.14</ele>
        <time>2017-04-17T10:27:12Z</time>
      </trkpt>
      <trkpt lat="50.2783" lon="4.4203">
        <ele>173.66</ele>
        <time>2017-04-17T10:27:31Z</time>
      </trkpt>
      <trkpt lat="50.27815" lon="4.42053">
        <ele>173.17</ele>
        <time>2017-04-17T10:27:46Z</time>
      </trkpt>
      <trkpt lat="50.27796" lon="4.42079">
        <ele>173.17</ele>
        <time>2017-04-17T10:28:05Z</time>
      </trkpt>
      <trkpt lat="50.27779" lon="4.42102">
        <ele>173.17</ele>
        <time>2017-04-17T10:28:22Z</time>
      </trkpt>
      <trkpt lat="50.27765" lon="4.42126">
        <ele>174.14</ele>
        <time>2017-04-17T10:28:38Z</time>
      </trkpt>
      <trkpt lat="50.27753" lon="4.4215">
        <ele>175.58</ele>
        <time>2017-04-17T10:28:53Z</time>
      </trkpt>
      <trkpt lat="50.27742" lon="4.42173">
        <ele>177.02</ele>
        <time>2017-04-17T10:29:08Z</time>
      </trkpt>
      <trkpt lat="50.27727" lon="4.42196">
        <ele>178.46</ele>
        <time>2017-04-17T10:29:24Z</time>
      </trkpt>
      <trkpt lat="50.27711" lon="4.42222">
        <ele>179.9</ele>
        <time>2017-04-17T10:29:41Z</time>
      </trkpt>
      <trkpt lat="50.27699" lon="4.42253">
        <ele>181.35</ele>
        <time>2017-04-17T10:29:59Z</time>
      </trkpt>
      <trkpt lat="50.2769" lon="4.42279">
        <ele>181.83</ele>
        <time>2017-04-17T10:30:14Z</time>
      </trkpt>
      <trkpt lat="50.27678" lon="4.42309">
        <ele>182.79</ele>
        <time>2017-04-17T10:30:31Z</time>
      </trkpt>
      <trkpt lat="50.27665" lon="4.42336">
        <ele>182.79</ele>
        <time>2017-04-17T10:30:48Z</time>
      </trkpt>
      <trkpt lat="50.27651" lon="4.42365">
        <ele>183.27</ele>
        <time>2017-04-17T10:31:05Z</time>
      </trkpt>
      <trkpt lat="50.27638" lon="4.42396">
        <ele>184.23</ele>
        <time>2017-04-17T10:31:23Z</time>
      </trkpt>
      <trkpt lat="50.27626" lon="4.42429">
        <ele>184.71</ele>
        <time>2017-04-17T10:31:41Z</time>
      </trkpt>
      <trkpt lat="50.27617" lon="4.42455">
        <ele>184.71</ele>
        <time>2017-04-17T10:31:55Z</time>
      </trkpt>
      <trkpt lat="50.27607" lon="4.4249">
        <ele>184.71</ele>
        <time>2017-04-17T10:32:14Z</time>
      </trkpt>
      <trkpt lat="50.27597" lon="4.42521">
        <ele>184.71</ele>
        <time>2017-04-17T10:32:31Z</time>
      </trkpt>
      <trkpt lat="50.27593" lon="4.42535">
        <ele>183.27</ele>
        <time>2017-04-17T10:32:38Z</time>
      </trkpt>
      <trkpt lat="50.27583" lon="4.42564">
        <ele>183.27</ele>
        <time>2017-04-17T10:32:54Z</time>
      </trkpt>
      <trkpt lat="50.27574" lon="4.42593">
        <ele>182.79</ele>
        <time>2017-04-17T10:33:09Z</time>
      </trkpt>
      <trkpt lat="50.27563" lon="4.42627">
        <ele>182.79</ele>
        <time>2017-04-17T10:33:27Z</time>
      </trkpt>
      <trkpt lat="50.27551" lon="4.42659">
        <ele>182.31</ele>
        <time>2017-04-17T10:33:44Z</time>
      </trkpt>
      <trkpt lat="50.27541" lon="4.42689">
        <ele>181.35</ele>
        <time>2017-04-17T10:34:00Z</time>
      </trkpt>
      <trkpt lat="50.2753" lon="4.42728">
        <ele>180.87</ele>
        <time>2017-04-17T10:34:20Z</time>
      </trkpt>
      <trkpt lat="50.27524" lon="4.42766">
        <ele>180.87</ele>
        <time>2017-04-17T10:34:39Z</time>
      </trkpt>
      <trkpt lat="50.27518" lon="4.42798">
        <ele>180.87</ele>
        <time>2017-04-17T10:34:55Z</time>
      </trkpt>
      <trkpt lat="50.27511" lon="4.42839">
        <ele>180.38</ele>
        <time>2017-04-17T10:35:15Z</time>
      </trkpt>
      <trkpt lat="50.27505" lon="4.42878">
        <ele>180.38</ele>
        <time>2017-04-17T10:35:34Z</time>
      </trkpt>
      <trkpt lat="50.27501" lon="4.42913">
        <ele>181.83</ele>
        <time>2017-04-17T10:35:52Z</time>
      </trkpt>
      <trkpt lat="50.27495" lon="4.42948">
        <ele>181.83</ele>
        <time>2017-04-17T10:36:10Z</time>
      </trkpt>
      <trkpt lat="50.27487" lon="4.42979">
        <ele>181.83</ele>
        <time>2017-04-17T10:36:26Z</time>
      </trkpt>
      <trkpt lat="50.27478" lon="4.43011">
        <ele>181.83</ele>
        <time>2017-04-17T10:36:43Z</time>
      </trkpt>
      <trkpt lat="50.27469" lon="4.43043">
        <ele>181.83</ele>
        <time>2017-04-17T10:36:59Z</time>
      </trkpt>
      <trkpt lat="50.27459" lon="4.43079">
        <ele>180.87</ele>
        <time>2017-04-17T10:37:18Z</time>
      </trkpt>
      <trkpt lat="50.2745" lon="4.43113">
        <ele>179.42</ele>
        <time>2017-04-17T10:37:36Z</time>
      </trkpt>
      <trkpt lat="50.27444" lon="4.43146">
        <ele>178.94</ele>
        <time>2017-04-17T10:37:52Z</time>
      </trkpt>
      <trkpt lat="50.27439" lon="4.43183">
        <ele>178.46</ele>
        <time>2017-04-17T10:38:10Z</time>
      </trkpt>
      <trkpt lat="50.27436" lon="4.43216">
        <ele>177.5</ele>
        <time>2017-04-17T10:38:26Z</time>
      </trkpt>
      <trkpt lat="50.27433" lon="4.43257">
        <ele>177.5</ele>
        <time>2017-04-17T10:38:45Z</time>
      </trkpt>
      <trkpt lat="50.27433" lon="4.43292">
        <ele>177.02</ele>
        <time>2017-04-17T10:39:02Z</time>
      </trkpt>
      <trkpt lat="50.27433" lon="4.43317">
        <ele>176.54</ele>
        <time>2017-04-17T10:39:15Z</time>
      </trkpt>
      <trkpt lat="50.27432" lon="4.43339">
        <ele>176.06</ele>
        <time>2017-04-17T10:39:27Z</time>
      </trkpt>
      <trkpt lat="50.27431" lon="4.43342">
        <ele>176.06</ele>
        <time>2017-04-17T10:39:29Z</time>
      </trkpt>
      <trkpt lat="50.2743" lon="4.43345">
        <ele>175.58</ele>
        <time>2017-04-17T10:39:31Z</time>
      </trkpt>
      <trkpt lat="50.27425" lon="4.43349">
        <ele>174.14</ele>
        <time>2017-04-17T10:39:36Z</time>
      </trkpt>
      <trkpt lat="50.27407" lon="4.4335">
        <ele>171.73</ele>
        <time>2017-04-17T10:39:51Z</time>
      </trkpt>
      <trkpt lat="50.27395" lon="4.43345">
        <ele>169.81</ele>
        <time>2017-04-17T10:40:03Z</time>
      </trkpt>
      <trkpt lat="50.2738" lon="4.43336">
        <ele>167.89</ele>
        <time>2017-04-17T10:40:17Z</time>
      </trkpt>
      <trkpt lat="50.27368" lon="4.4332">
        <ele>165.96</ele>
        <time>2017-04-17T10:40:32Z</time>
      </trkpt>
      <trkpt lat="50.27357" lon="4.433">
        <ele>163.08</ele>
        <time>2017-04-17T10:40:46Z</time>
      </trkpt>
      <trkpt lat="50.27346" lon="4.43277">
        <ele>161.16</ele>
        <time>2017-04-17T10:41:01Z</time>
      </trkpt>
      <trkpt lat="50.27343" lon="4.43273">
        <ele>160.68</ele>
        <time>2017-04-17T10:41:04Z</time>
      </trkpt>
      <trkpt lat="50.27336" lon="4.43272">
        <ele>160.2</ele>
        <time>2017-04-17T10:41:10Z</time>
      </trkpt>
      <trkpt lat="50.27314" lon="4.43284">
        <ele>158.27</ele>
        <time>2017-04-17T10:41:26Z</time>
      </trkpt>
      <trkpt lat="50.27292" lon="4.43285">
        <ele>156.83</ele>
        <time>2017-04-17T10:41:43Z</time>
      </trkpt>
      <trkpt lat="50.27273" lon="4.43267">
        <ele>156.35</ele>
        <time>2017-04-17T10:41:59Z</time>
      </trkpt>
      <trkpt lat="50.27263" lon="4.43246">
        <ele>155.87</ele>
        <time>2017-04-17T10:42:12Z</time>
      </trkpt>
      <trkpt lat="50.27258" lon="4.43215">
        <ele>156.35</ele>
        <time>2017-04-17T10:42:29Z</time>
      </trkpt>
      <trkpt lat="50.27253" lon="4.43182">
        <ele>156.83</ele>
        <time>2017-04-17T10:42:45Z</time>
      </trkpt>
      <trkpt lat="50.27248" lon="4.43152">
        <ele>156.83</ele>
        <time>2017-04-17T10:43:00Z</time>
      </trkpt>
      <trkpt lat="50.27237" lon="4.43129">
        <ele>156.83</ele>
        <time>2017-04-17T10:43:14Z</time>
      </trkpt>
      <trkpt lat="50.27224" lon="4.43104">
        <ele>157.79</ele>
        <time>2017-04-17T10:43:30Z</time>
      </trkpt>
      <trkpt lat="50.27212" lon="4.43084">
        <ele>159.24</ele>
        <time>2017-04-17T10:43:45Z</time>
      </trkpt>
      <trkpt lat="50.27201" lon="4.43073">
        <ele>159.72</ele>
        <time>2017-04-17T10:43:57Z</time>
      </trkpt>
      <trkpt lat="50.27172" lon="4.43081">
        <ele>161.16</ele>
        <time>2017-04-17T10:44:18Z</time>
      </trkpt>
      <trkpt lat="50.27168" lon="4.43086">
        <ele>161.64</ele>
        <time>2017-04-17T10:44:23Z</time>
      </trkpt>
      <trkpt lat="50.27149" lon="4.43098">
        <ele>163.08</ele>
        <time>2017-04-17T10:44:37Z</time>
      </trkpt>
      <trkpt lat="50.27132" lon="4.43107">
        <ele>165.48</ele>
        <time>2017-04-17T10:44:53Z</time>
      </trkpt>
      <trkpt lat="50.2713" lon="4.43104">
        <ele>165.48</ele>
        <time>2017-04-17T10:44:57Z</time>
      </trkpt>
      <trkpt lat="50.27118" lon="4.4308">
        <ele>166.93</ele>
        <time>2017-04-17T10:45:13Z</time>
      </trkpt>
      <trkpt lat="50.27116" lon="4.43066">
        <ele>167.41</ele>
        <time>2017-04-17T10:45:25Z</time>
      </trkpt>
      <trkpt lat="50.27121" lon="4.43066">
        <ele>167.89</ele>
        <time>2017-04-17T10:45:41Z</time>
      </trkpt>
      <trkpt lat="50.27116" lon="4.43056">
        <ele>167.89</ele>
        <time>2017-04-17T10:46:03Z</time>
      </trkpt>
      <trkpt lat="50.27108" lon="4.43049">
        <ele>167.41</ele>
        <time>2017-04-17T10:46:21Z</time>
      </trkpt>
      <trkpt lat="50.27114" lon="4.4305">
        <ele>167.89</ele>
        <time>2017-04-17T10:46:42Z</time>
      </trkpt>
      <trkpt lat="50.27112" lon="4.43055">
        <ele>168.85</ele>
        <time>2017-04-17T10:46:59Z</time>
      </trkpt>
      <trkpt lat="50.27113" lon="4.43056">
        <ele>168.37</ele>
        <time>2017-04-17T10:47:25Z</time>
      </trkpt>
      <trkpt lat="50.27113" lon="4.43057">
        <ele>166.93</ele>
        <time>2017-04-17T10:47:48Z</time>
      </trkpt>
      <trkpt lat="50.27113" lon="4.43058">
        <ele>166.93</ele>
        <time>2017-04-17T10:48:16Z</time>
      </trkpt>
      <trkpt lat="50.27115" lon="4.43057">
        <ele>166.93</ele>
        <time>2017-04-17T10:48:38Z</time>
      </trkpt>
      <trkpt lat="50.27114" lon="4.43058">
        <ele>166.93</ele>
        <time>2017-04-17T10:49:05Z</time>
      </trkpt>
      <trkpt lat="50.27119" lon="4.43063">
        <ele>166.45</ele>
        <time>2017-04-17T10:49:29Z</time>
      </trkpt>
      <trkpt lat="50.27117" lon="4.43066">
        <ele>166.45</ele>
        <time>2017-04-17T10:49:50Z</time>
      </trkpt>
      <trkpt lat="50.27114" lon="4.43061">
        <ele>166.45</ele>
        <time>2017-04-17T10:50:15Z</time>
      </trkpt>
      <trkpt lat="50.27114" lon="4.43063">
        <ele>166.93</ele>
        <time>2017-04-17T10:50:43Z</time>
      </trkpt>
      <trkpt lat="50.27112" lon="4.43061">
        <ele>166.93</ele>
        <time>2017-04-17T10:51:18Z</time>
      </trkpt>
      <trkpt lat="50.27113" lon="4.43062">
        <ele>166.93</ele>
        <time>2017-04-17T10:51:57Z</time>
      </trkpt>
      <trkpt lat="50.27117" lon="4.43064">
        <ele>166.93</ele>
        <time>2017-04-17T10:52:26Z</time>
      </trkpt>
      <trkpt lat="50.27116" lon="4.4306">
        <ele>166.45</ele>
        <time>2017-04-17T10:53:01Z</time>
      </trkpt>
      <trkpt lat="50.27113" lon="4.4306">
        <ele>166.45</ele>
        <time>2017-04-17T10:53:36Z</time>
      </trkpt>
      <trkpt lat="50.27112" lon="4.43058">
        <ele>166.93</ele>
        <time>2017-04-17T10:54:07Z</time>
      </trkpt>
      <trkpt lat="50.27111" lon="4.43058">
        <ele>166.93</ele>
        <time>2017-04-17T10:54:42Z</time>
      </trkpt>
      <trkpt lat="50.2711" lon="4.43061">
        <ele>166.93</ele>
        <time>2017-04-17T10:55:17Z</time>
      </trkpt>
      <trkpt lat="50.2711" lon="4.43057">
        <ele>167.41</ele>
        <time>2017-04-17T10:55:50Z</time>
      </trkpt>
      <trkpt lat="50.27114" lon="4.43061">
        <ele>167.41</ele>
        <time>2017-04-17T10:56:31Z</time>
      </trkpt>
      <trkpt lat="50.27112" lon="4.43057">
        <ele>167.41</ele>
        <time>2017-04-17T10:57:08Z</time>
      </trkpt>
      <trkpt lat="50.27114" lon="4.43063">
        <ele>166.93</ele>
        <time>2017-04-17T10:57:41Z</time>
      </trkpt>
      <trkpt lat="50.27116" lon="4.43063">
        <ele>166.93</ele>
        <time>2017-04-17T10:58:16Z</time>
      </trkpt>
      <trkpt lat="50.27117" lon="4.43061">
        <ele>167.41</ele>
        <time>2017-04-17T10:58:47Z</time>
      </trkpt>
      <trkpt lat="50.27117" lon="4.4306">
        <ele>168.37</ele>
        <time>2017-04-17T10:59:09Z</time>
      </trkpt>
      <trkpt lat="50.2711" lon="4.4306">
        <ele>168.37</ele>
        <time>2017-04-17T10:59:40Z</time>
      </trkpt>
      <trkpt lat="50.2711" lon="4.43061">
        <ele>168.37</ele>
        <time>2017-04-17T11:00:11Z</time>
      </trkpt>
      <trkpt lat="50.27109" lon="4.4306">
        <ele>168.85</ele>
        <time>2017-04-17T11:00:45Z</time>
      </trkpt>
      <trkpt lat="50.27107" lon="4.4306">
        <ele>168.85</ele>
        <time>2017-04-17T11:01:19Z</time>
      </trkpt>
      <trkpt lat="50.27114" lon="4.43061">
        <ele>168.85</ele>
        <time>2017-04-17T11:01:49Z</time>
      </trkpt>
      <trkpt lat="50.27113" lon="4.4306">
        <ele>168.85</ele>
        <time>2017-04-17T11:02:10Z</time>
      </trkpt>
      <trkpt lat="50.27115" lon="4.43064">
        <ele>168.85</ele>
        <time>2017-04-17T11:02:41Z</time>
      </trkpt>
      <trkpt lat="50.27114" lon="4.43062">
        <ele>168.85</ele>
        <time>2017-04-17T11:03:14Z</time>
      </trkpt>
      <trkpt lat="50.27116" lon="4.43063">
        <ele>169.33</ele>
        <time>2017-04-17T11:03:46Z</time>
      </trkpt>
      <trkpt lat="50.27116" lon="4.43064">
        <ele>169.33</ele>
        <time>2017-04-17T11:04:25Z</time>
      </trkpt>
      <trkpt lat="50.27112" lon="4.43063">
        <ele>169.33</ele>
        <time>2017-04-17T11:05:02Z</time>
      </trkpt>
      <trkpt lat="50.27114" lon="4.43062">
        <ele>169.81</ele>
        <time>2017-04-17T11:05:36Z</time>
      </trkpt>
      <trkpt lat="50.27112" lon="4.4306">
        <ele>169.81</ele>
        <time>2017-04-17T11:06:10Z</time>
      </trkpt>
      <trkpt lat="50.27112" lon="4.4306">
        <ele>169.81</ele>
        <time>2017-04-17T11:06:34Z</time>
      </trkpt>
      <trkpt lat="50.27113" lon="4.43059">
        <ele>169.81</ele>
        <time>2017-04-17T11:07:07Z</time>
      </trkpt>
      <trkpt lat="50.27114" lon="4.43058">
        <ele>169.81</ele>
        <time>2017-04-17T11:07:40Z</time>
      </trkpt>
      <trkpt lat="50.27116" lon="4.4306">
        <ele>169.81</ele>
        <time>2017-04-17T11:08:05Z</time>
      </trkpt>
      <trkpt lat="50.27115" lon="4.4306">
        <ele>169.81</ele>
        <time>2017-04-17T11:08:43Z</time>
      </trkpt>
      <trkpt lat="50.27116" lon="4.4306">
        <ele>169.81</ele>
        <time>2017-04-17T11:09:19Z</time>
      </trkpt>
      <trkpt lat="50.27115" lon="4.4306">
        <ele>169.81</ele>
        <time>2017-04-17T11:09:42Z</time>
      </trkpt>
      <trkpt lat="50.2712" lon="4.43061">
        <ele>169.81</ele>
        <time>2017-04-17T11:10:00Z</time>
      </trkpt>
      <trkpt lat="50.27121" lon="4.43058">
        <ele>169.81</ele>
        <time>2017-04-17T11:10:19Z</time>
      </trkpt>
      <trkpt lat="50.2711" lon="4.43065">
        <ele>169.81</ele>
        <time>2017-04-17T11:10:37Z</time>
      </trkpt>
      <trkpt lat="50.27115" lon="4.43057">
        <ele>169.81</ele>
        <time>2017-04-17T11:10:57Z</time>
      </trkpt>
      <trkpt lat="50.27114" lon="4.43056">
        <ele>169.81</ele>
        <time>2017-04-17T11:11:16Z</time>
      </trkpt>
      <trkpt lat="50.27109" lon="4.43062">
        <ele>169.33</ele>
        <time>2017-04-17T11:11:29Z</time>
      </trkpt>
      <trkpt lat="50.27103" lon="4.43063">
        <ele>168.37</ele>
        <time>2017-04-17T11:11:38Z</time>
      </trkpt>
      <trkpt lat="50.27101" lon="4.43062">
        <ele>168.37</ele>
        <time>2017-04-17T11:11:41Z</time>
      </trkpt>
      <trkpt lat="50.27089" lon="4.43045">
        <ele>166.93</ele>
        <time>2017-04-17T11:11:55Z</time>
      </trkpt>
      <trkpt lat="50.27076" lon="4.43031">
        <ele>165.96</ele>
        <time>2017-04-17T11:12:10Z</time>
      </trkpt>
      <trkpt lat="50.27072" lon="4.4302">
        <ele>165</ele>
        <time>2017-04-17T11:12:24Z</time>
      </trkpt>
      <trkpt lat="50.2707" lon="4.43016">
        <ele>164.52</ele>
        <time>2017-04-17T11:12:26Z</time>
      </trkpt>
      <trkpt lat="50.2706" lon="4.42998">
        <ele>164.04</ele>
        <time>2017-04-17T11:12:38Z</time>
      </trkpt>
      <trkpt lat="50.27059" lon="4.42993">
        <ele>163.56</ele>
        <time>2017-04-17T11:12:41Z</time>
      </trkpt>
      <trkpt lat="50.27046" lon="4.42968">
        <ele>162.12</ele>
        <time>2017-04-17T11:12:57Z</time>
      </trkpt>
      <trkpt lat="50.27044" lon="4.42964">
        <ele>161.64</ele>
        <time>2017-04-17T11:13:00Z</time>
      </trkpt>
      <trkpt lat="50.27041" lon="4.42968">
        <ele>161.16</ele>
        <time>2017-04-17T11:13:12Z</time>
      </trkpt>
      <trkpt lat="50.27042" lon="4.4297">
        <ele>161.16</ele>
        <time>2017-04-17T11:13:14Z</time>
      </trkpt>
      <trkpt lat="50.27045" lon="4.42978">
        <ele>160.68</ele>
        <time>2017-04-17T11:13:19Z</time>
      </trkpt>
      <trkpt lat="50.27057" lon="4.43004">
        <ele>159.24</ele>
        <time>2017-04-17T11:13:35Z</time>
      </trkpt>
      <trkpt lat="50.2706" lon="4.43009">
        <ele>158.75</ele>
        <time>2017-04-17T11:13:39Z</time>
      </trkpt>
      <trkpt lat="50.27061" lon="4.43013">
        <ele>158.75</ele>
        <time>2017-04-17T11:13:41Z</time>
      </trkpt>
      <trkpt lat="50.27063" lon="4.43024">
        <ele>158.27</ele>
        <time>2017-04-17T11:13:46Z</time>
      </trkpt>
      <trkpt lat="50.27064" lon="4.43036">
        <ele>157.31</ele>
        <time>2017-04-17T11:13:52Z</time>
      </trkpt>
      <trkpt lat="50.27071" lon="4.4306">
        <ele>156.35</ele>
        <time>2017-04-17T11:14:05Z</time>
      </trkpt>
      <trkpt lat="50.27073" lon="4.43074">
        <ele>156.35</ele>
        <time>2017-04-17T11:14:13Z</time>
      </trkpt>
      <trkpt lat="50.27072" lon="4.43106">
        <ele>156.35</ele>
        <time>2017-04-17T11:14:29Z</time>
      </trkpt>
      <trkpt lat="50.2707" lon="4.43118">
        <ele>155.87</ele>
        <time>2017-04-17T11:14:35Z</time>
      </trkpt>
      <trkpt lat="50.2707" lon="4.43126">
        <ele>155.87</ele>
        <time>2017-04-17T11:14:39Z</time>
      </trkpt>
      <trkpt lat="50.27069" lon="4.43143">
        <ele>155.87</ele>
        <time>2017-04-17T11:14:47Z</time>
      </trkpt>
      <trkpt lat="50.27064" lon="4.43181">
        <ele>154.91</ele>
        <time>2017-04-17T11:15:04Z</time>
      </trkpt>
      <trkpt lat="50.27063" lon="4.43217">
        <ele>154.91</ele>
        <time>2017-04-17T11:15:21Z</time>
      </trkpt>
      <trkpt lat="50.27062" lon="4.43222">
        <ele>154.91</ele>
        <time>2017-04-17T11:15:24Z</time>
      </trkpt>
      <trkpt lat="50.27051" lon="4.4325">
        <ele>154.91</ele>
        <time>2017-04-17T11:15:40Z</time>
      </trkpt>
      <trkpt lat="50.27048" lon="4.43272">
        <ele>154.91</ele>
        <time>2017-04-17T11:15:53Z</time>
      </trkpt>
      <trkpt lat="50.27049" lon="4.43293">
        <ele>155.87</ele>
        <time>2017-04-17T11:16:02Z</time>
      </trkpt>
      <trkpt lat="50.27045" lon="4.43299">
        <ele>155.87</ele>
        <time>2017-04-17T11:16:16Z</time>
      </trkpt>
      <trkpt lat="50.2706" lon="4.43298">
        <ele>154.43</ele>
        <time>2017-04-17T11:16:27Z</time>
      </trkpt>
      <trkpt lat="50.2707" lon="4.43301">
        <ele>155.87</ele>
        <time>2017-04-17T11:16:36Z</time>
      </trkpt>
      <trkpt lat="50.27076" lon="4.43322">
        <ele>155.87</ele>
        <time>2017-04-17T11:16:49Z</time>
      </trkpt>
      <trkpt lat="50.27076" lon="4.4333">
        <ele>155.87</ele>
        <time>2017-04-17T11:16:54Z</time>
      </trkpt>
      <trkpt lat="50.27078" lon="4.43355">
        <ele>156.83</ele>
        <time>2017-04-17T11:17:08Z</time>
      </trkpt>
      <trkpt lat="50.27077" lon="4.43383">
        <ele>158.75</ele>
        <time>2017-04-17T11:17:24Z</time>
      </trkpt>
      <trkpt lat="50.27074" lon="4.43418">
        <ele>161.64</ele>
        <time>2017-04-17T11:17:42Z</time>
      </trkpt>
      <trkpt lat="50.27073" lon="4.43451">
        <ele>163.56</ele>
        <time>2017-04-17T11:17:59Z</time>
      </trkpt>
      <trkpt lat="50.27083" lon="4.43482">
        <ele>163.56</ele>
        <time>2017-04-17T11:18:15Z</time>
      </trkpt>
      <trkpt lat="50.27099" lon="4.43502">
        <ele>164.52</ele>
        <time>2017-04-17T11:18:30Z</time>
      </trkpt>
      <trkpt lat="50.271" lon="4.43503">
        <ele>164.52</ele>
        <time>2017-04-17T11:18:31Z</time>
      </trkpt>
      <trkpt lat="50.27114" lon="4.43527">
        <ele>165</ele>
        <time>2017-04-17T11:18:47Z</time>
      </trkpt>
      <trkpt lat="50.2712" lon="4.43564">
        <ele>166.93</ele>
        <time>2017-04-17T11:19:05Z</time>
      </trkpt>
      <trkpt lat="50.2712" lon="4.43566">
        <ele>166.93</ele>
        <time>2017-04-17T11:19:06Z</time>
      </trkpt>
      <trkpt lat="50.2712" lon="4.43581">
        <ele>167.41</ele>
        <time>2017-04-17T11:19:14Z</time>
      </trkpt>
      <trkpt lat="50.27123" lon="4.43592">
        <ele>167.89</ele>
        <time>2017-04-17T11:19:21Z</time>
      </trkpt>
      <trkpt lat="50.27122" lon="4.43628">
        <ele>168.85</ele>
        <time>2017-04-17T11:19:39Z</time>
      </trkpt>
      <trkpt lat="50.27121" lon="4.43665">
        <ele>169.81</ele>
        <time>2017-04-17T11:19:57Z</time>
      </trkpt>
      <trkpt lat="50.2712" lon="4.43701">
        <ele>169.81</ele>
        <time>2017-04-17T11:20:14Z</time>
      </trkpt>
      <trkpt lat="50.2712" lon="4.43715">
        <ele>169.81</ele>
        <time>2017-04-17T11:20:21Z</time>
      </trkpt>
      <trkpt lat="50.27118" lon="4.43749">
        <ele>170.29</ele>
        <time>2017-04-17T11:20:39Z</time>
      </trkpt>
      <trkpt lat="50.27126" lon="4.43776">
        <ele>170.29</ele>
        <time>2017-04-17T11:20:53Z</time>
      </trkpt>
      <trkpt lat="50.27129" lon="4.43785">
        <ele>170.29</ele>
        <time>2017-04-17T11:20:58Z</time>
      </trkpt>
      <trkpt lat="50.27131" lon="4.43787">
        <ele>170.29</ele>
        <time>2017-04-17T11:21:00Z</time>
      </trkpt>
      <trkpt lat="50.27135" lon="4.43793">
        <ele>168.85</ele>
        <time>2017-04-17T11:21:05Z</time>
      </trkpt>
      <trkpt lat="50.27144" lon="4.43806">
        <ele>167.89</ele>
        <time>2017-04-17T11:21:13Z</time>
      </trkpt>
      <trkpt lat="50.27156" lon="4.43829">
        <ele>166.45</ele>
        <time>2017-04-17T11:21:28Z</time>
      </trkpt>
      <trkpt lat="50.2717" lon="4.43857">
        <ele>165.96</ele>
        <time>2017-04-17T11:21:44Z</time>
      </trkpt>
      <trkpt lat="50.27186" lon="4.43887">
        <ele>164.52</ele>
        <time>2017-04-17T11:22:03Z</time>
      </trkpt>
      <trkpt lat="50.27201" lon="4.43916">
        <ele>163.08</ele>
        <time>2017-04-17T11:22:21Z</time>
      </trkpt>
      <trkpt lat="50.27215" lon="4.43942">
        <ele>163.08</ele>
        <time>2017-04-17T11:22:38Z</time>
      </trkpt>
      <trkpt lat="50.27228" lon="4.43969">
        <ele>164.52</ele>
        <time>2017-04-17T11:22:56Z</time>
      </trkpt>
      <trkpt lat="50.27234" lon="4.44002">
        <ele>165.96</ele>
        <time>2017-04-17T11:23:12Z</time>
      </trkpt>
      <trkpt lat="50.27237" lon="4.44007">
        <ele>166.45</ele>
        <time>2017-04-17T11:23:16Z</time>
      </trkpt>
      <trkpt lat="50.27261" lon="4.43997">
        <ele>166.93</ele>
        <time>2017-04-17T11:23:36Z</time>
      </trkpt>
      <trkpt lat="50.27282" lon="4.43985">
        <ele>168.37</ele>
        <time>2017-04-17T11:23:54Z</time>
      </trkpt>
      <trkpt lat="50.27303" lon="4.43973">
        <ele>169.81</ele>
        <time>2017-04-17T11:24:11Z</time>
      </trkpt>
      <trkpt lat="50.27323" lon="4.43962">
        <ele>170.29</ele>
        <time>2017-04-17T11:24:27Z</time>
      </trkpt>
      <trkpt lat="50.27339" lon="4.43943">
        <ele>171.73</ele>
        <time>2017-04-17T11:24:43Z</time>
      </trkpt>
      <trkpt lat="50.27342" lon="4.43928">
        <ele>173.17</ele>
        <time>2017-04-17T11:24:51Z</time>
      </trkpt>
      <trkpt lat="50.27351" lon="4.43888">
        <ele>174.14</ele>
        <time>2017-04-17T11:25:11Z</time>
      </trkpt>
      <trkpt lat="50.27357" lon="4.43853">
        <ele>174.62</ele>
        <time>2017-04-17T11:25:29Z</time>
      </trkpt>
      <trkpt lat="50.27358" lon="4.43816">
        <ele>175.1</ele>
        <time>2017-04-17T11:25:47Z</time>
      </trkpt>
      <trkpt lat="50.2736" lon="4.4378">
        <ele>176.06</ele>
        <time>2017-04-17T11:26:04Z</time>
      </trkpt>
      <trkpt lat="50.27361" lon="4.43745">
        <ele>176.06</ele>
        <time>2017-04-17T11:26:21Z</time>
      </trkpt>
      <trkpt lat="50.27363" lon="4.43706">
        <ele>176.54</ele>
        <time>2017-04-17T11:26:40Z</time>
      </trkpt>
      <trkpt lat="50.27363" lon="4.43672">
        <ele>176.54</ele>
        <time>2017-04-17T11:26:57Z</time>
      </trkpt>
      <trkpt lat="50.27368" lon="4.43631">
        <ele>177.02</ele>
        <time>2017-04-17T11:27:17Z</time>
      </trkpt>
      <trkpt lat="50.27378" lon="4.43594">
        <ele>177.02</ele>
        <time>2017-04-17T11:27:36Z</time>
      </trkpt>
      <trkpt lat="50.2739" lon="4.43556">
        <ele>177.98</ele>
        <time>2017-04-17T11:27:56Z</time>
      </trkpt>
      <trkpt lat="50.27402" lon="4.43523">
        <ele>177.98</ele>
        <time>2017-04-17T11:28:14Z</time>
      </trkpt>
      <trkpt lat="50.27412" lon="4.43493">
        <ele>177.02</ele>
        <time>2017-04-17T11:28:30Z</time>
      </trkpt>
      <trkpt lat="50.27423" lon="4.43458">
        <ele>176.54</ele>
        <time>2017-04-17T11:28:49Z</time>
      </trkpt>
      <trkpt lat="50.27431" lon="4.43424">
        <ele>175.1</ele>
        <time>2017-04-17T11:29:07Z</time>
      </trkpt>
      <trkpt lat="50.27437" lon="4.43385">
        <ele>174.14</ele>
        <time>2017-04-17T11:29:26Z</time>
      </trkpt>
      <trkpt lat="50.27437" lon="4.43346">
        <ele>173.17</ele>
        <time>2017-04-17T11:29:46Z</time>
      </trkpt>
      <trkpt lat="50.27437" lon="4.43325">
        <ele>174.62</ele>
        <time>2017-04-17T11:29:57Z</time>
      </trkpt>
      <trkpt lat="50.27441" lon="4.43295">
        <ele>175.58</ele>
        <time>2017-04-17T11:30:12Z</time>
      </trkpt>
      <trkpt lat="50.27443" lon="4.43291">
        <ele>175.58</ele>
        <time>2017-04-17T11:30:15Z</time>
      </trkpt>
      <trkpt lat="50.27447" lon="4.43287">
        <ele>176.06</ele>
        <time>2017-04-17T11:30:19Z</time>
      </trkpt>
      <trkpt lat="50.27471" lon="4.43265">
        <ele>177.98</ele>
        <time>2017-04-17T11:30:40Z</time>
      </trkpt>
      <trkpt lat="50.27499" lon="4.43247">
        <ele>179.42</ele>
        <time>2017-04-17T11:31:02Z</time>
      </trkpt>
      <trkpt lat="50.2752" lon="4.43233">
        <ele>180.38</ele>
        <time>2017-04-17T11:31:19Z</time>
      </trkpt>
      <trkpt lat="50.27542" lon="4.43212">
        <ele>181.83</ele>
        <time>2017-04-17T11:31:38Z</time>
      </trkpt>
      <trkpt lat="50.27562" lon="4.43194">
        <ele>182.31</ele>
        <time>2017-04-17T11:31:55Z</time>
      </trkpt>
      <trkpt lat="50.27585" lon="4.43177">
        <ele>183.27</ele>
        <time>2017-04-17T11:32:14Z</time>
      </trkpt>
      <trkpt lat="50.27607" lon="4.43162">
        <ele>184.23</ele>
        <time>2017-04-17T11:32:32Z</time>
      </trkpt>
      <trkpt lat="50.27629" lon="4.43147">
        <ele>184.23</ele>
        <time>2017-04-17T11:32:50Z</time>
      </trkpt>
      <trkpt lat="50.27647" lon="4.43134">
        <ele>184.23</ele>
        <time>2017-04-17T11:33:05Z</time>
      </trkpt>
      <trkpt lat="50.27668" lon="4.43119">
        <ele>185.19</ele>
        <time>2017-04-17T11:33:22Z</time>
      </trkpt>
      <trkpt lat="50.27679" lon="4.43109">
        <ele>184.71</ele>
        <time>2017-04-17T11:33:36Z</time>
      </trkpt>
      <trkpt lat="50.27699" lon="4.43095">
        <ele>184.71</ele>
        <time>2017-04-17T11:33:53Z</time>
      </trkpt>
      <trkpt lat="50.27718" lon="4.43079">
        <ele>184.71</ele>
        <time>2017-04-17T11:34:09Z</time>
      </trkpt>
      <trkpt lat="50.27739" lon="4.43063">
        <ele>186.63</ele>
        <time>2017-04-17T11:34:26Z</time>
      </trkpt>
      <trkpt lat="50.2776" lon="4.4305">
        <ele>186.63</ele>
        <time>2017-04-17T11:34:43Z</time>
      </trkpt>
      <trkpt lat="50.27781" lon="4.43037">
        <ele>186.63</ele>
        <time>2017-04-17T11:34:59Z</time>
      </trkpt>
      <trkpt lat="50.27801" lon="4.43026">
        <ele>187.11</ele>
        <time>2017-04-17T11:35:15Z</time>
      </trkpt>
      <trkpt lat="50.27825" lon="4.43012">
        <ele>188.08</ele>
        <time>2017-04-17T11:35:34Z</time>
      </trkpt>
      <trkpt lat="50.27849" lon="4.43">
        <ele>188.56</ele>
        <time>2017-04-17T11:35:52Z</time>
      </trkpt>
      <trkpt lat="50.27871" lon="4.42992">
        <ele>189.04</ele>
        <time>2017-04-17T11:36:09Z</time>
      </trkpt>
      <trkpt lat="50.27894" lon="4.42982">
        <ele>190</ele>
        <time>2017-04-17T11:36:27Z</time>
      </trkpt>
      <trkpt lat="50.27916" lon="4.42973">
        <ele>190.48</ele>
        <time>2017-04-17T11:36:44Z</time>
      </trkpt>
      <trkpt lat="50.27939" lon="4.42962">
        <ele>191.44</ele>
        <time>2017-04-17T11:37:02Z</time>
      </trkpt>
      <trkpt lat="50.27961" lon="4.42951">
        <ele>191.92</ele>
        <time>2017-04-17T11:37:20Z</time>
      </trkpt>
      <trkpt lat="50.27984" lon="4.42941">
        <ele>191.92</ele>
        <time>2017-04-17T11:37:38Z</time>
      </trkpt>
      <trkpt lat="50.28006" lon="4.4293">
        <ele>190.96</ele>
        <time>2017-04-17T11:37:55Z</time>
      </trkpt>
      <trkpt lat="50.28031" lon="4.42919">
        <ele>190.48</ele>
        <time>2017-04-17T11:38:14Z</time>
      </trkpt>
      <trkpt lat="50.28052" lon="4.42911">
        <ele>190</ele>
        <time>2017-04-17T11:38:31Z</time>
      </trkpt>
      <trkpt lat="50.2807" lon="4.42902">
        <ele>189.04</ele>
        <time>2017-04-17T11:38:45Z</time>
      </trkpt>
      <trkpt lat="50.28087" lon="4.42893">
        <ele>187.59</ele>
        <time>2017-04-17T11:38:59Z</time>
      </trkpt>
      <trkpt lat="50.2809" lon="4.42884">
        <ele>187.11</ele>
        <time>2017-04-17T11:39:05Z</time>
      </trkpt>
      <trkpt lat="50.28091" lon="4.4285">
        <ele>187.59</ele>
        <time>2017-04-17T11:39:22Z</time>
      </trkpt>
      <trkpt lat="50.2809" lon="4.4282">
        <ele>187.11</ele>
        <time>2017-04-17T11:39:37Z</time>
      </trkpt>
      <trkpt lat="50.28091" lon="4.42789">
        <ele>186.15</ele>
        <time>2017-04-17T11:39:53Z</time>
      </trkpt>
      <trkpt lat="50.28093" lon="4.42749">
        <ele>185.19</ele>
        <time>2017-04-17T11:40:10Z</time>
      </trkpt>
      <trkpt lat="50.28096" lon="4.4271">
        <ele>183.75</ele>
        <time>2017-04-17T11:40:28Z</time>
      </trkpt>
      <trkpt lat="50.28099" lon="4.42679">
        <ele>182.31</ele>
        <time>2017-04-17T11:40:43Z</time>
      </trkpt>
      <trkpt lat="50.28099" lon="4.42642">
        <ele>180.87</ele>
        <time>2017-04-17T11:41:00Z</time>
      </trkpt>
      <trkpt lat="50.28088" lon="4.42612">
        <ele>180.87</ele>
        <time>2017-04-17T11:41:16Z</time>
      </trkpt>
      <trkpt lat="50.28075" lon="4.42581">
        <ele>180.38</ele>
        <time>2017-04-17T11:41:33Z</time>
      </trkpt>
      <trkpt lat="50.28066" lon="4.42559">
        <ele>180.38</ele>
        <time>2017-04-17T11:41:47Z</time>
      </trkpt>
      <trkpt lat="50.28064" lon="4.42555">
        <ele>180.38</ele>
        <time>2017-04-17T11:42:00Z</time>
      </trkpt>
      <trkpt lat="50.28057" lon="4.42541">
        <ele>180.38</ele>
        <time>2017-04-17T11:42:11Z</time>
      </trkpt>
      <trkpt lat="50.28056" lon="4.42538">
        <ele>180.38</ele>
        <time>2017-04-17T11:42:24Z</time>
      </trkpt>
      <trkpt lat="50.28049" lon="4.42519">
        <ele>180.38</ele>
        <time>2017-04-17T11:42:36Z</time>
      </trkpt>
      <trkpt lat="50.28046" lon="4.42512">
        <ele>180.38</ele>
        <time>2017-04-17T11:42:40Z</time>
      </trkpt>
      <trkpt lat="50.28043" lon="4.42503">
        <ele>180.38</ele>
        <time>2017-04-17T11:42:46Z</time>
      </trkpt>
      <trkpt lat="50.28029" lon="4.42459">
        <ele>180.38</ele>
        <time>2017-04-17T11:43:08Z</time>
      </trkpt>
      <trkpt lat="50.28017" lon="4.42423">
        <ele>179.9</ele>
        <time>2017-04-17T11:43:27Z</time>
      </trkpt>
      <trkpt lat="50.28008" lon="4.42395">
        <ele>179.42</ele>
        <time>2017-04-17T11:43:42Z</time>
      </trkpt>
      <trkpt lat="50.27999" lon="4.42364">
        <ele>179.42</ele>
        <time>2017-04-17T11:43:58Z</time>
      </trkpt>
      <trkpt lat="50.27989" lon="4.42331">
        <ele>178.94</ele>
        <time>2017-04-17T11:44:15Z</time>
      </trkpt>
      <trkpt lat="50.27977" lon="4.42301">
        <ele>178.46</ele>
        <time>2017-04-17T11:44:31Z</time>
      </trkpt>
      <trkpt lat="50.27965" lon="4.42267">
        <ele>178.46</ele>
        <time>2017-04-17T11:44:49Z</time>
      </trkpt>
      <trkpt lat="50.27959" lon="4.42251">
        <ele>177.98</ele>
        <time>2017-04-17T11:44:57Z</time>
      </trkpt>
      <trkpt lat="50.27949" lon="4.42216">
        <ele>177.98</ele>
        <time>2017-04-17T11:45:15Z</time>
      </trkpt>
      <trkpt lat="50.27946" lon="4.42184">
        <ele>177.5</ele>
        <time>2017-04-17T11:45:31Z</time>
      </trkpt>
      <trkpt lat="50.27943" lon="4.42152">
        <ele>177.02</ele>
        <time>2017-04-17T11:45:47Z</time>
      </trkpt>
      <trkpt lat="50.27944" lon="4.42113">
        <ele>177.02</ele>
        <time>2017-04-17T11:46:05Z</time>
      </trkpt>
      <trkpt lat="50.27945" lon="4.42079">
        <ele>176.06</ele>
        <time>2017-04-17T11:46:21Z</time>
      </trkpt>
      <trkpt lat="50.27948" lon="4.4204">
        <ele>175.1</ele>
        <time>2017-04-17T11:46:39Z</time>
      </trkpt>
      <trkpt lat="50.27951" lon="4.41999">
        <ele>175.1</ele>
        <time>2017-04-17T11:46:58Z</time>
      </trkpt>
      <trkpt lat="50.27956" lon="4.41963">
        <ele>174.62</ele>
        <time>2017-04-17T11:47:16Z</time>
      </trkpt>
      <trkpt lat="50.27959" lon="4.4193">
        <ele>174.62</ele>
        <time>2017-04-17T11:47:32Z</time>
      </trkpt>
      <trkpt lat="50.27963" lon="4.4189">
        <ele>174.14</ele>
        <time>2017-04-17T11:47:50Z</time>
      </trkpt>
      <trkpt lat="50.27963" lon="4.41856">
        <ele>173.17</ele>
        <time>2017-04-17T11:48:06Z</time>
      </trkpt>
      <trkpt lat="50.27966" lon="4.41836">
        <ele>172.69</ele>
        <time>2017-04-17T11:48:16Z</time>
      </trkpt>
      <trkpt lat="50.27978" lon="4.41838">
        <ele>171.73</ele>
        <time>2017-04-17T11:48:24Z</time>
      </trkpt>
      <trkpt lat="50.28001" lon="4.41854">
        <ele>171.73</ele>
        <time>2017-04-17T11:48:42Z</time>
      </trkpt>
      <trkpt lat="50.28025" lon="4.41861">
        <ele>171.25</ele>
        <time>2017-04-17T11:48:59Z</time>
      </trkpt>
      <trkpt lat="50.28045" lon="4.41868">
        <ele>171.25</ele>
        <time>2017-04-17T11:49:14Z</time>
      </trkpt>
      <trkpt lat="50.28067" lon="4.41873">
        <ele>172.21</ele>
        <time>2017-04-17T11:49:30Z</time>
      </trkpt>
      <trkpt lat="50.28074" lon="4.41872">
        <ele>172.21</ele>
        <time>2017-04-17T11:49:35Z</time>
      </trkpt>
      <trkpt lat="50.28077" lon="4.41862">
        <ele>172.21</ele>
        <time>2017-04-17T11:49:41Z</time>
      </trkpt>
      <trkpt lat="50.2808" lon="4.41821">
        <ele>171.25</ele>
        <time>2017-04-17T11:50:00Z</time>
      </trkpt>
      <trkpt lat="50.28081" lon="4.41783">
        <ele>170.29</ele>
        <time>2017-04-17T11:50:18Z</time>
      </trkpt>
      <trkpt lat="50.2808" lon="4.41742">
        <ele>169.33</ele>
        <time>2017-04-17T11:50:37Z</time>
      </trkpt>
      <trkpt lat="50.28079" lon="4.41702">
        <ele>168.37</ele>
        <time>2017-04-17T11:50:56Z</time>
      </trkpt>
      <trkpt lat="50.28077" lon="4.41667">
        <ele>167.89</ele>
        <time>2017-04-17T11:51:12Z</time>
      </trkpt>
      <trkpt lat="50.28074" lon="4.41632">
        <ele>167.89</ele>
        <time>2017-04-17T11:51:29Z</time>
      </trkpt>
      <trkpt lat="50.28071" lon="4.41599">
        <ele>167.89</ele>
        <time>2017-04-17T11:51:44Z</time>
      </trkpt>
      <trkpt lat="50.28071" lon="4.41585">
        <ele>167.89</ele>
        <time>2017-04-17T11:51:56Z</time>
      </trkpt>
      <trkpt lat="50.28068" lon="4.41556">
        <ele>167.41</ele>
        <time>2017-04-17T11:52:09Z</time>
      </trkpt>
      <trkpt lat="50.28066" lon="4.41528">
        <ele>167.41</ele>
        <time>2017-04-17T11:52:23Z</time>
      </trkpt>
      <trkpt lat="50.28063" lon="4.41495">
        <ele>167.41</ele>
        <time>2017-04-17T11:52:39Z</time>
      </trkpt>
      <trkpt lat="50.28072" lon="4.41462">
        <ele>167.89</ele>
        <time>2017-04-17T11:52:56Z</time>
      </trkpt>
      <trkpt lat="50.28086" lon="4.41434">
        <ele>167.41</ele>
        <time>2017-04-17T11:53:12Z</time>
      </trkpt>
      <trkpt lat="50.28094" lon="4.41404">
        <ele>165.48</ele>
        <time>2017-04-17T11:53:29Z</time>
      </trkpt>
      <trkpt lat="50.28096" lon="4.41371">
        <ele>165</ele>
        <time>2017-04-17T11:53:45Z</time>
      </trkpt>
      <trkpt lat="50.281" lon="4.41349">
        <ele>163.56</ele>
        <time>2017-04-17T11:53:57Z</time>
      </trkpt>
      <trkpt lat="50.2811" lon="4.41326">
        <ele>161.64</ele>
        <time>2017-04-17T11:54:12Z</time>
      </trkpt>
      <trkpt lat="50.28111" lon="4.41324">
        <ele>161.64</ele>
        <time>2017-04-17T11:54:13Z</time>
      </trkpt>
      <trkpt lat="50.28112" lon="4.41287">
        <ele>161.16</ele>
        <time>2017-04-17T11:54:32Z</time>
      </trkpt>
      <trkpt lat="50.28113" lon="4.41261">
        <ele>158.75</ele>
        <time>2017-04-17T11:54:48Z</time>
      </trkpt>
      <trkpt lat="50.28115" lon="4.41235">
        <ele>155.87</ele>
        <time>2017-04-17T11:55:04Z</time>
      </trkpt>
      <trkpt lat="50.28117" lon="4.41209">
        <ele>152.99</ele>
        <time>2017-04-17T11:55:18Z</time>
      </trkpt>
      <trkpt lat="50.28117" lon="4.41195">
        <ele>151.54</ele>
        <time>2017-04-17T11:55:25Z</time>
      </trkpt>
      <trkpt lat="50.28127" lon="4.41174">
        <ele>147.7</ele>
        <time>2017-04-17T11:55:40Z</time>
      </trkpt>
      <trkpt lat="50.28128" lon="4.41171">
        <ele>147.7</ele>
        <time>2017-04-17T11:55:42Z</time>
      </trkpt>
      <trkpt lat="50.28147" lon="4.41149">
        <ele>147.22</ele>
        <time>2017-04-17T11:56:00Z</time>
      </trkpt>
      <trkpt lat="50.28156" lon="4.41112">
        <ele>147.22</ele>
        <time>2017-04-17T11:56:18Z</time>
      </trkpt>
      <trkpt lat="50.28165" lon="4.41082">
        <ele>146.74</ele>
        <time>2017-04-17T11:56:34Z</time>
      </trkpt>
      <trkpt lat="50.28175" lon="4.41057">
        <ele>146.74</ele>
        <time>2017-04-17T11:56:50Z</time>
      </trkpt>
      <trkpt lat="50.28189" lon="4.41026">
        <ele>146.74</ele>
        <time>2017-04-17T11:57:08Z</time>
      </trkpt>
      <trkpt lat="50.28209" lon="4.40994">
        <ele>146.74</ele>
        <time>2017-04-17T11:57:27Z</time>
      </trkpt>
      <trkpt lat="50.28233" lon="4.40974">
        <ele>146.74</ele>
        <time>2017-04-17T11:57:46Z</time>
      </trkpt>
      <trkpt lat="50.28252" lon="4.4097">
        <ele>146.74</ele>
        <time>2017-04-17T11:58:02Z</time>
      </trkpt>
      <trkpt lat="50.28268" lon="4.40982">
        <ele>146.74</ele>
        <time>2017-04-17T11:58:15Z</time>
      </trkpt>
      <trkpt lat="50.28271" lon="4.40988">
        <ele>146.74</ele>
        <time>2017-04-17T11:58:19Z</time>
      </trkpt>
      <trkpt lat="50.28291" lon="4.40974">
        <ele>146.74</ele>
        <time>2017-04-17T11:58:38Z</time>
      </trkpt>
      <trkpt lat="50.28307" lon="4.40953">
        <ele>146.26</ele>
        <time>2017-04-17T11:58:53Z</time>
      </trkpt>
      <trkpt lat="50.28322" lon="4.40932">
        <ele>146.26</ele>
        <time>2017-04-17T11:59:09Z</time>
      </trkpt>
      <trkpt lat="50.28339" lon="4.40911">
        <ele>146.26</ele>
        <time>2017-04-17T11:59:25Z</time>
      </trkpt>
      <trkpt lat="50.28361" lon="4.40894">
        <ele>148.66</ele>
        <time>2017-04-17T11:59:43Z</time>
      </trkpt>
      <trkpt lat="50.28384" lon="4.40876">
        <ele>149.62</ele>
        <time>2017-04-17T12:00:01Z</time>
      </trkpt>
      <trkpt lat="50.28407" lon="4.40862">
        <ele>151.06</ele>
        <time>2017-04-17T12:00:20Z</time>
      </trkpt>
      <trkpt lat="50.2841" lon="4.4086">
        <ele>151.06</ele>
        <time>2017-04-17T12:00:23Z</time>
      </trkpt>
      <trkpt lat="50.28427" lon="4.40844">
        <ele>152.03</ele>
        <time>2017-04-17T12:00:39Z</time>
      </trkpt>
      <trkpt lat="50.28448" lon="4.40822">
        <ele>152.99</ele>
        <time>2017-04-17T12:00:57Z</time>
      </trkpt>
      <trkpt lat="50.28469" lon="4.40799">
        <ele>151.54</ele>
        <time>2017-04-17T12:01:16Z</time>
      </trkpt>
      <trkpt lat="50.28492" lon="4.40769">
        <ele>150.58</ele>
        <time>2017-04-17T12:01:38Z</time>
      </trkpt>
      <trkpt lat="50.2851" lon="4.40744">
        <ele>150.1</ele>
        <time>2017-04-17T12:01:57Z</time>
      </trkpt>
      <trkpt lat="50.28521" lon="4.40716">
        <ele>148.18</ele>
        <time>2017-04-17T12:02:14Z</time>
      </trkpt>
      <trkpt lat="50.28534" lon="4.40687">
        <ele>145.78</ele>
        <time>2017-04-17T12:02:30Z</time>
      </trkpt>
      <trkpt lat="50.28546" lon="4.40659">
        <ele>145.3</ele>
        <time>2017-04-17T12:02:46Z</time>
      </trkpt>
      <trkpt lat="50.28554" lon="4.40635">
        <ele>145.3</ele>
        <time>2017-04-17T12:03:01Z</time>
      </trkpt>
      <trkpt lat="50.28558" lon="4.4063">
        <ele>146.74</ele>
        <time>2017-04-17T12:03:06Z</time>
      </trkpt>
      <trkpt lat="50.28567" lon="4.40615">
        <ele>150.1</ele>
        <time>2017-04-17T12:03:20Z</time>
      </trkpt>
      <trkpt lat="50.28567" lon="4.40609">
        <ele>150.1</ele>
        <time>2017-04-17T12:03:24Z</time>
      </trkpt>
      <trkpt lat="50.28559" lon="4.40595">
        <ele>150.58</ele>
        <time>2017-04-17T12:03:34Z</time>
      </trkpt>
      <trkpt lat="50.28563" lon="4.40587">
        <ele>150.58</ele>
        <time>2017-04-17T12:03:39Z</time>
      </trkpt>
      <trkpt lat="50.2858" lon="4.40565">
        <ele>148.18</ele>
        <time>2017-04-17T12:03:58Z</time>
      </trkpt>
      <trkpt lat="50.28578" lon="4.40565">
        <ele>148.18</ele>
        <time>2017-04-17T12:04:01Z</time>
      </trkpt>
      <trkpt lat="50.2856" lon="4.40587">
        <ele>145.78</ele>
        <time>2017-04-17T12:04:20Z</time>
      </trkpt>
      <trkpt lat="50.28558" lon="4.40589">
        <ele>145.3</ele>
        <time>2017-04-17T12:04:23Z</time>
      </trkpt>
      <trkpt lat="50.28554" lon="4.40583">
        <ele>144.82</ele>
        <time>2017-04-17T12:04:28Z</time>
      </trkpt>
      <trkpt lat="50.28541" lon="4.4056">
        <ele>144.82</ele>
        <time>2017-04-17T12:04:45Z</time>
      </trkpt>
      <trkpt lat="50.28531" lon="4.40541">
        <ele>144.82</ele>
        <time>2017-04-17T12:05:00Z</time>
      </trkpt>
      <trkpt lat="50.28519" lon="4.40516">
        <ele>144.82</ele>
        <time>2017-04-17T12:05:15Z</time>
      </trkpt>
      <trkpt lat="50.28506" lon="4.40491">
        <ele>144.34</ele>
        <time>2017-04-17T12:05:32Z</time>
      </trkpt>
      <trkpt lat="50.28495" lon="4.4047">
        <ele>143.85</ele>
        <time>2017-04-17T12:05:45Z</time>
      </trkpt>
      <trkpt lat="50.28492" lon="4.40462">
        <ele>145.3</ele>
        <time>2017-04-17T12:05:51Z</time>
      </trkpt>
      <trkpt lat="50.28489" lon="4.4044">
        <ele>148.66</ele>
        <time>2017-04-17T12:06:04Z</time>
      </trkpt>
      <trkpt lat="50.28488" lon="4.4041">
        <ele>151.54</ele>
        <time>2017-04-17T12:06:20Z</time>
      </trkpt>
      <trkpt lat="50.28488" lon="4.40405">
        <ele>152.51</ele>
        <time>2017-04-17T12:06:23Z</time>
      </trkpt>
      <trkpt lat="50.2849" lon="4.40373">
        <ele>155.87</ele>
        <time>2017-04-17T12:06:40Z</time>
      </trkpt>
      <trkpt lat="50.28492" lon="4.40347">
        <ele>159.24</ele>
        <time>2017-04-17T12:06:56Z</time>
      </trkpt>
      <trkpt lat="50.28487" lon="4.40329">
        <ele>160.68</ele>
        <time>2017-04-17T12:07:05Z</time>
      </trkpt>
      <trkpt lat="50.28487" lon="4.40317">
        <ele>161.64</ele>
        <time>2017-04-17T12:07:12Z</time>
      </trkpt>
      <trkpt lat="50.28467" lon="4.40321">
        <ele>161.64</ele>
        <time>2017-04-17T12:07:30Z</time>
      </trkpt>
      <trkpt lat="50.28467" lon="4.40322">
        <ele>161.64</ele>
        <time>2017-04-17T12:07:31Z</time>
      </trkpt>
      <trkpt lat="50.28463" lon="4.40334">
        <ele>161.64</ele>
        <time>2017-04-17T12:07:44Z</time>
      </trkpt>
      <trkpt lat="50.28461" lon="4.40328">
        <ele>161.64</ele>
        <time>2017-04-17T12:08:05Z</time>
      </trkpt>
      <trkpt lat="50.28462" lon="4.40327">
        <ele>161.64</ele>
        <time>2017-04-17T12:08:31Z</time>
      </trkpt>
      <trkpt lat="50.28455" lon="4.40338">
        <ele>161.64</ele>
        <time>2017-04-17T12:08:51Z</time>
      </trkpt>
      <trkpt lat="50.2846" lon="4.40331">
        <ele>161.64</ele>
        <time>2017-04-17T12:09:07Z</time>
      </trkpt>
      <trkpt lat="50.28463" lon="4.40327">
        <ele>161.64</ele>
        <time>2017-04-17T12:09:10Z</time>
      </trkpt>
      <trkpt lat="50.28469" lon="4.4032">
        <ele>161.64</ele>
        <time>2017-04-17T12:09:14Z</time>
      </trkpt>
      <trkpt lat="50.28492" lon="4.40313">
        <ele>161.64</ele>
        <time>2017-04-17T12:09:33Z</time>
      </trkpt>
      <trkpt lat="50.28516" lon="4.40309">
        <ele>161.64</ele>
        <time>2017-04-17T12:09:51Z</time>
      </trkpt>
      <trkpt lat="50.28535" lon="4.40302">
        <ele>160.2</ele>
        <time>2017-04-17T12:10:07Z</time>
      </trkpt>
      <trkpt lat="50.28556" lon="4.40295">
        <ele>159.24</ele>
        <time>2017-04-17T12:10:24Z</time>
      </trkpt>
      <trkpt lat="50.28575" lon="4.40286">
        <ele>157.31</ele>
        <time>2017-04-17T12:10:40Z</time>
      </trkpt>
      <trkpt lat="50.28599" lon="4.40273">
        <ele>155.87</ele>
        <time>2017-04-17T12:10:59Z</time>
      </trkpt>
      <trkpt lat="50.28619" lon="4.40262">
        <ele>154.43</ele>
        <time>2017-04-17T12:11:17Z</time>
      </trkpt>
      <trkpt lat="50.28637" lon="4.40244">
        <ele>152.99</ele>
        <time>2017-04-17T12:11:33Z</time>
      </trkpt>
      <trkpt lat="50.28644" lon="4.40233">
        <ele>152.03</ele>
        <time>2017-04-17T12:11:40Z</time>
      </trkpt>
      <trkpt lat="50.28653" lon="4.40221">
        <ele>151.54</ele>
        <time>2017-04-17T12:11:50Z</time>
      </trkpt>
      <trkpt lat="50.28666" lon="4.4019">
        <ele>150.1</ele>
        <time>2017-04-17T12:12:08Z</time>
      </trkpt>
      <trkpt lat="50.28679" lon="4.40161">
        <ele>148.66</ele>
        <time>2017-04-17T12:12:25Z</time>
      </trkpt>
      <trkpt lat="50.28688" lon="4.40143">
        <ele>147.7</ele>
        <time>2017-04-17T12:12:38Z</time>
      </trkpt>
      <trkpt lat="50.28708" lon="4.40129">
        <ele>145.78</ele>
        <time>2017-04-17T12:12:55Z</time>
      </trkpt>
      <trkpt lat="50.2873" lon="4.40132">
        <ele>144.34</ele>
        <time>2017-04-17T12:13:12Z</time>
      </trkpt>
      <trkpt lat="50.28752" lon="4.40135">
        <ele>143.85</ele>
        <time>2017-04-17T12:13:29Z</time>
      </trkpt>
      <trkpt lat="50.2878" lon="4.40138">
        <ele>143.37</ele>
        <time>2017-04-17T12:13:49Z</time>
      </trkpt>
      <trkpt lat="50.28801" lon="4.40128">
        <ele>143.37</ele>
        <time>2017-04-17T12:14:06Z</time>
      </trkpt>
      <trkpt lat="50.28827" lon="4.40116">
        <ele>143.37</ele>
        <time>2017-04-17T12:14:24Z</time>
      </trkpt>
      <trkpt lat="50.28845" lon="4.40131">
        <ele>143.37</ele>
        <time>2017-04-17T12:14:41Z</time>
      </trkpt>
      <trkpt lat="50.28864" lon="4.40145">
        <ele>144.34</ele>
        <time>2017-04-17T12:14:56Z</time>
      </trkpt>
      <trkpt lat="50.28868" lon="4.40148">
        <ele>144.34</ele>
        <time>2017-04-17T12:15:00Z</time>
      </trkpt>
      <trkpt lat="50.28877" lon="4.40138">
        <ele>144.34</ele>
        <time>2017-04-17T12:15:09Z</time>
      </trkpt>
      <trkpt lat="50.28884" lon="4.40122">
        <ele>142.89</ele>
        <time>2017-04-17T12:15:19Z</time>
      </trkpt>
      <trkpt lat="50.28893" lon="4.40096">
        <ele>143.37</ele>
        <time>2017-04-17T12:15:35Z</time>
      </trkpt>
      <trkpt lat="50.28895" lon="4.40093">
        <ele>143.37</ele>
        <time>2017-04-17T12:15:37Z</time>
      </trkpt>
      <trkpt lat="50.28902" lon="4.40076">
        <ele>143.37</ele>
        <time>2017-04-17T12:15:48Z</time>
      </trkpt>
      <trkpt lat="50.28905" lon="4.4007">
        <ele>143.37</ele>
        <time>2017-04-17T12:15:52Z</time>
      </trkpt>
      <trkpt lat="50.28912" lon="4.4006">
        <ele>144.82</ele>
        <time>2017-04-17T12:16:01Z</time>
      </trkpt>
      <trkpt lat="50.28921" lon="4.40049">
        <ele>147.7</ele>
        <time>2017-04-17T12:16:15Z</time>
      </trkpt>
      <trkpt lat="50.28931" lon="4.40049">
        <ele>150.58</ele>
        <time>2017-04-17T12:16:27Z</time>
      </trkpt>
      <trkpt lat="50.28947" lon="4.40059">
        <ele>153.95</ele>
        <time>2017-04-17T12:16:43Z</time>
      </trkpt>
      <trkpt lat="50.28958" lon="4.40067">
        <ele>155.87</ele>
        <time>2017-04-17T12:16:54Z</time>
      </trkpt>
      <trkpt lat="50.28969" lon="4.40086">
        <ele>158.27</ele>
        <time>2017-04-17T12:17:09Z</time>
      </trkpt>
      <trkpt lat="50.28971" lon="4.40091">
        <ele>158.75</ele>
        <time>2017-04-17T12:17:13Z</time>
      </trkpt>
      <trkpt lat="50.28982" lon="4.40104">
        <ele>160.68</ele>
        <time>2017-04-17T12:17:26Z</time>
      </trkpt>
      <trkpt lat="50.28989" lon="4.40131">
        <ele>162.6</ele>
        <time>2017-04-17T12:17:43Z</time>
      </trkpt>
      <trkpt lat="50.28996" lon="4.40154">
        <ele>164.04</ele>
        <time>2017-04-17T12:17:59Z</time>
      </trkpt>
      <trkpt lat="50.29004" lon="4.40182">
        <ele>164.52</ele>
        <time>2017-04-17T12:18:13Z</time>
      </trkpt>
      <trkpt lat="50.29016" lon="4.40205">
        <ele>166.45</ele>
        <time>2017-04-17T12:18:29Z</time>
      </trkpt>
      <trkpt lat="50.29031" lon="4.4022">
        <ele>167.89</ele>
        <time>2017-04-17T12:18:44Z</time>
      </trkpt>
      <trkpt lat="50.29045" lon="4.40235">
        <ele>168.85</ele>
        <time>2017-04-17T12:18:59Z</time>
      </trkpt>
      <trkpt lat="50.29064" lon="4.4025">
        <ele>168.85</ele>
        <time>2017-04-17T12:19:15Z</time>
      </trkpt>
      <trkpt lat="50.29087" lon="4.40266">
        <ele>169.33</ele>
        <time>2017-04-17T12:19:33Z</time>
      </trkpt>
      <trkpt lat="50.29096" lon="4.40275">
        <ele>170.29</ele>
        <time>2017-04-17T12:19:42Z</time>
      </trkpt>
      <trkpt lat="50.29108" lon="4.40287">
        <ele>171.25</ele>
        <time>2017-04-17T12:19:53Z</time>
      </trkpt>
      <trkpt lat="50.29123" lon="4.40304">
        <ele>171.73</ele>
        <time>2017-04-17T12:20:08Z</time>
      </trkpt>
      <trkpt lat="50.2914" lon="4.40325">
        <ele>172.21</ele>
        <time>2017-04-17T12:20:25Z</time>
      </trkpt>
      <trkpt lat="50.29153" lon="4.4034">
        <ele>173.17</ele>
        <time>2017-04-17T12:20:38Z</time>
      </trkpt>
      <trkpt lat="50.29169" lon="4.4036">
        <ele>172.69</ele>
        <time>2017-04-17T12:20:54Z</time>
      </trkpt>
      <trkpt lat="50.29184" lon="4.4038">
        <ele>173.17</ele>
        <time>2017-04-17T12:21:10Z</time>
      </trkpt>
      <trkpt lat="50.29199" lon="4.40398">
        <ele>174.14</ele>
        <time>2017-04-17T12:21:25Z</time>
      </trkpt>
      <trkpt lat="50.29214" lon="4.40415">
        <ele>175.1</ele>
        <time>2017-04-17T12:21:40Z</time>
      </trkpt>
      <trkpt lat="50.29229" lon="4.40433">
        <ele>175.58</ele>
        <time>2017-04-17T12:21:55Z</time>
      </trkpt>
      <trkpt lat="50.29245" lon="4.40452">
        <ele>176.54</ele>
        <time>2017-04-17T12:22:11Z</time>
      </trkpt>
      <trkpt lat="50.2926" lon="4.40474">
        <ele>177.02</ele>
        <time>2017-04-17T12:22:28Z</time>
      </trkpt>
      <trkpt lat="50.29267" lon="4.40482">
        <ele>177.02</ele>
        <time>2017-04-17T12:22:35Z</time>
      </trkpt>
      <trkpt lat="50.2927" lon="4.40487">
        <ele>176.54</ele>
        <time>2017-04-17T12:22:39Z</time>
      </trkpt>
      <trkpt lat="50.29287" lon="4.40503">
        <ele>177.02</ele>
        <time>2017-04-17T12:22:54Z</time>
      </trkpt>
      <trkpt lat="50.293" lon="4.40514">
        <ele>177.5</ele>
        <time>2017-04-17T12:23:06Z</time>
      </trkpt>
      <trkpt lat="50.29312" lon="4.40485">
        <ele>177.5</ele>
        <time>2017-04-17T12:23:24Z</time>
      </trkpt>
      <trkpt lat="50.29325" lon="4.40455">
        <ele>176.06</ele>
        <time>2017-04-17T12:23:42Z</time>
      </trkpt>
      <trkpt lat="50.29331" lon="4.40442">
        <ele>176.06</ele>
        <time>2017-04-17T12:23:49Z</time>
      </trkpt>
      <trkpt lat="50.29347" lon="4.40412">
        <ele>176.06</ele>
        <time>2017-04-17T12:24:08Z</time>
      </trkpt>
      <trkpt lat="50.29361" lon="4.40382">
        <ele>177.5</ele>
        <time>2017-04-17T12:24:27Z</time>
      </trkpt>
      <trkpt lat="50.29362" lon="4.4038">
        <ele>177.5</ele>
        <time>2017-04-17T12:24:28Z</time>
      </trkpt>
      <trkpt lat="50.29377" lon="4.4035">
        <ele>177.5</ele>
        <time>2017-04-17T12:24:46Z</time>
      </trkpt>
      <trkpt lat="50.29393" lon="4.40317">
        <ele>178.94</ele>
        <time>2017-04-17T12:25:06Z</time>
      </trkpt>
      <trkpt lat="50.29408" lon="4.40286">
        <ele>179.9</ele>
        <time>2017-04-17T12:25:25Z</time>
      </trkpt>
      <trkpt lat="50.29421" lon="4.4026">
        <ele>180.38</ele>
        <time>2017-04-17T12:25:41Z</time>
      </trkpt>
      <trkpt lat="50.29433" lon="4.40232">
        <ele>180.87</ele>
        <time>2017-04-17T12:25:58Z</time>
      </trkpt>
      <trkpt lat="50.29447" lon="4.40205">
        <ele>180.87</ele>
        <time>2017-04-17T12:26:15Z</time>
      </trkpt>
      <trkpt lat="50.29461" lon="4.40174">
        <ele>181.35</ele>
        <time>2017-04-17T12:26:33Z</time>
      </trkpt>
      <trkpt lat="50.29473" lon="4.40143">
        <ele>181.83</ele>
        <time>2017-04-17T12:26:51Z</time>
      </trkpt>
      <trkpt lat="50.29483" lon="4.40116">
        <ele>182.31</ele>
        <time>2017-04-17T12:27:07Z</time>
      </trkpt>
      <trkpt lat="50.29494" lon="4.40086">
        <ele>182.31</ele>
        <time>2017-04-17T12:27:23Z</time>
      </trkpt>
      <trkpt lat="50.29504" lon="4.40058">
        <ele>182.31</ele>
        <time>2017-04-17T12:27:39Z</time>
      </trkpt>
      <trkpt lat="50.29515" lon="4.40031">
        <ele>183.27</ele>
        <time>2017-04-17T12:27:55Z</time>
      </trkpt>
      <trkpt lat="50.29525" lon="4.4">
        <ele>183.27</ele>
        <time>2017-04-17T12:28:12Z</time>
      </trkpt>
      <trkpt lat="50.29537" lon="4.3997">
        <ele>181.83</ele>
        <time>2017-04-17T12:28:29Z</time>
      </trkpt>
      <trkpt lat="50.29547" lon="4.39941">
        <ele>181.35</ele>
        <time>2017-04-17T12:28:45Z</time>
      </trkpt>
      <trkpt lat="50.29557" lon="4.39911">
        <ele>180.87</ele>
        <time>2017-04-17T12:29:02Z</time>
      </trkpt>
      <trkpt lat="50.29566" lon="4.39884">
        <ele>179.42</ele>
        <time>2017-04-17T12:29:18Z</time>
      </trkpt>
      <trkpt lat="50.29571" lon="4.39855">
        <ele>177.98</ele>
        <time>2017-04-17T12:29:33Z</time>
      </trkpt>
      <trkpt lat="50.29581" lon="4.39826">
        <ele>177.5</ele>
        <time>2017-04-17T12:29:48Z</time>
      </trkpt>
      <trkpt lat="50.29599" lon="4.39803">
        <ele>176.54</ele>
        <time>2017-04-17T12:30:05Z</time>
      </trkpt>
      <trkpt lat="50.29618" lon="4.39787">
        <ele>175.58</ele>
        <time>2017-04-17T12:30:21Z</time>
      </trkpt>
      <trkpt lat="50.29638" lon="4.39775">
        <ele>175.1</ele>
        <time>2017-04-17T12:30:36Z</time>
      </trkpt>
      <trkpt lat="50.29658" lon="4.39764">
        <ele>174.14</ele>
        <time>2017-04-17T12:30:52Z</time>
      </trkpt>
      <trkpt lat="50.29678" lon="4.39754">
        <ele>173.66</ele>
        <time>2017-04-17T12:31:08Z</time>
      </trkpt>
      <trkpt lat="50.29699" lon="4.39743">
        <ele>173.17</ele>
        <time>2017-04-17T12:31:24Z</time>
      </trkpt>
      <trkpt lat="50.29723" lon="4.39731">
        <ele>173.66</ele>
        <time>2017-04-17T12:31:42Z</time>
      </trkpt>
      <trkpt lat="50.29743" lon="4.39728">
        <ele>173.66</ele>
        <time>2017-04-17T12:31:57Z</time>
      </trkpt>
      <trkpt lat="50.29763" lon="4.39734">
        <ele>174.62</ele>
        <time>2017-04-17T12:32:13Z</time>
      </trkpt>
      <trkpt lat="50.29779" lon="4.3975">
        <ele>175.1</ele>
        <time>2017-04-17T12:32:27Z</time>
      </trkpt>
      <trkpt lat="50.2979" lon="4.39769">
        <ele>176.54</ele>
        <time>2017-04-17T12:32:40Z</time>
      </trkpt>
      <trkpt lat="50.29802" lon="4.39791">
        <ele>177.98</ele>
        <time>2017-04-17T12:32:55Z</time>
      </trkpt>
      <trkpt lat="50.29821" lon="4.39807">
        <ele>179.42</ele>
        <time>2017-04-17T12:33:12Z</time>
      </trkpt>
      <trkpt lat="50.29837" lon="4.39798">
        <ele>180.38</ele>
        <time>2017-04-17T12:33:26Z</time>
      </trkpt>
      <trkpt lat="50.29852" lon="4.39779">
        <ele>180.87</ele>
        <time>2017-04-17T12:33:42Z</time>
      </trkpt>
      <trkpt lat="50.29865" lon="4.39763">
        <ele>181.35</ele>
        <time>2017-04-17T12:33:57Z</time>
      </trkpt>
      <trkpt lat="50.29881" lon="4.39738">
        <ele>181.35</ele>
        <time>2017-04-17T12:34:15Z</time>
      </trkpt>
      <trkpt lat="50.29893" lon="4.39723">
        <ele>181.35</ele>
        <time>2017-04-17T12:34:27Z</time>
      </trkpt>
      <trkpt lat="50.29912" lon="4.39697">
        <ele>179.42</ele>
        <time>2017-04-17T12:34:44Z</time>
      </trkpt>
      <trkpt lat="50.2993" lon="4.3967">
        <ele>178.94</ele>
        <time>2017-04-17T12:35:01Z</time>
      </trkpt>
      <trkpt lat="50.29945" lon="4.39642">
        <ele>177.5</ele>
        <time>2017-04-17T12:35:20Z</time>
      </trkpt>
      <trkpt lat="50.29962" lon="4.39618">
        <ele>176.06</ele>
        <time>2017-04-17T12:35:37Z</time>
      </trkpt>
      <trkpt lat="50.29977" lon="4.39599">
        <ele>174.14</ele>
        <time>2017-04-17T12:35:52Z</time>
      </trkpt>
      <trkpt lat="50.29994" lon="4.39582">
        <ele>173.17</ele>
        <time>2017-04-17T12:36:08Z</time>
      </trkpt>
      <trkpt lat="50.29999" lon="4.39576">
        <ele>173.17</ele>
        <time>2017-04-17T12:36:14Z</time>
      </trkpt>
      <trkpt lat="50.30019" lon="4.3956">
        <ele>171.25</ele>
        <time>2017-04-17T12:36:31Z</time>
      </trkpt>
      <trkpt lat="50.3004" lon="4.39542">
        <ele>169.81</ele>
        <time>2017-04-17T12:36:47Z</time>
      </trkpt>
      <trkpt lat="50.30057" lon="4.3952">
        <ele>167.89</ele>
        <time>2017-04-17T12:37:03Z</time>
      </trkpt>
      <trkpt lat="50.30072" lon="4.39498">
        <ele>165</ele>
        <time>2017-04-17T12:37:21Z</time>
      </trkpt>
      <trkpt lat="50.30083" lon="4.39473">
        <ele>161.64</ele>
        <time>2017-04-17T12:37:38Z</time>
      </trkpt>
      <trkpt lat="50.30093" lon="4.39448">
        <ele>159.24</ele>
        <time>2017-04-17T12:37:53Z</time>
      </trkpt>
      <trkpt lat="50.30097" lon="4.39423">
        <ele>157.31</ele>
        <time>2017-04-17T12:38:08Z</time>
      </trkpt>
      <trkpt lat="50.30097" lon="4.39394">
        <ele>154.43</ele>
        <time>2017-04-17T12:38:24Z</time>
      </trkpt>
      <trkpt lat="50.30083" lon="4.3937">
        <ele>152.99</ele>
        <time>2017-04-17T12:38:43Z</time>
      </trkpt>
      <trkpt lat="50.30074" lon="4.39364">
        <ele>152.03</ele>
        <time>2017-04-17T12:38:51Z</time>
      </trkpt>
      <trkpt lat="50.3007" lon="4.39361">
        <ele>151.54</ele>
        <time>2017-04-17T12:38:55Z</time>
      </trkpt>
      <trkpt lat="50.30052" lon="4.39348">
        <ele>150.1</ele>
        <time>2017-04-17T12:39:11Z</time>
      </trkpt>
      <trkpt lat="50.30036" lon="4.39327">
        <ele>148.18</ele>
        <time>2017-04-17T12:39:29Z</time>
      </trkpt>
      <trkpt lat="50.30026" lon="4.39299">
        <ele>146.74</ele>
        <time>2017-04-17T12:39:46Z</time>
      </trkpt>
      <trkpt lat="50.3002" lon="4.39271">
        <ele>145.3</ele>
        <time>2017-04-17T12:40:02Z</time>
      </trkpt>
      <trkpt lat="50.30019" lon="4.39254">
        <ele>144.34</ele>
        <time>2017-04-17T12:40:11Z</time>
      </trkpt>
      <trkpt lat="50.30015" lon="4.39215">
        <ele>141.93</ele>
        <time>2017-04-17T12:40:29Z</time>
      </trkpt>
      <trkpt lat="50.30015" lon="4.39209">
        <ele>141.93</ele>
        <time>2017-04-17T12:40:32Z</time>
      </trkpt>
      <trkpt lat="50.30016" lon="4.39177">
        <ele>139.53</ele>
        <time>2017-04-17T12:40:47Z</time>
      </trkpt>
      <trkpt lat="50.30015" lon="4.39146">
        <ele>139.53</ele>
        <time>2017-04-17T12:41:03Z</time>
      </trkpt>
      <trkpt lat="50.30015" lon="4.39114">
        <ele>139.05</ele>
        <time>2017-04-17T12:41:18Z</time>
      </trkpt>
      <trkpt lat="50.30015" lon="4.3908">
        <ele>138.57</ele>
        <time>2017-04-17T12:41:35Z</time>
      </trkpt>
      <trkpt lat="50.30012" lon="4.3904">
        <ele>138.57</ele>
        <time>2017-04-17T12:41:55Z</time>
      </trkpt>
      <trkpt lat="50.30012" lon="4.39038">
        <ele>138.57</ele>
        <time>2017-04-17T12:41:56Z</time>
      </trkpt>
      <trkpt lat="50.3001" lon="4.39008">
        <ele>138.09</ele>
        <time>2017-04-17T12:42:12Z</time>
      </trkpt>
      <trkpt lat="50.30009" lon="4.38989">
        <ele>138.09</ele>
        <time>2017-04-17T12:42:21Z</time>
      </trkpt>
      <trkpt lat="50.30011" lon="4.38979">
        <ele>138.09</ele>
        <time>2017-04-17T12:42:26Z</time>
      </trkpt>
      <trkpt lat="50.30035" lon="4.38973">
        <ele>139.53</ele>
        <time>2017-04-17T12:42:43Z</time>
      </trkpt>
      <trkpt lat="50.30036" lon="4.38973">
        <ele>139.53</ele>
        <time>2017-04-17T12:42:44Z</time>
      </trkpt>
      <trkpt lat="50.30048" lon="4.38968">
        <ele>140.01</ele>
        <time>2017-04-17T12:42:57Z</time>
      </trkpt>
      <trkpt lat="50.30047" lon="4.38968">
        <ele>140.01</ele>
        <time>2017-04-17T12:43:13Z</time>
      </trkpt>
      <trkpt lat="50.30048" lon="4.38968">
        <ele>140.01</ele>
        <time>2017-04-17T12:43:30Z</time>
      </trkpt>
      <trkpt lat="50.30053" lon="4.38968">
        <ele>140.01</ele>
        <time>2017-04-17T12:43:39Z</time>
      </trkpt>
      <trkpt lat="50.30073" lon="4.38972">
        <ele>140.01</ele>
        <time>2017-04-17T12:43:56Z</time>
      </trkpt>
      <trkpt lat="50.30079" lon="4.38978">
        <ele>140.49</ele>
        <time>2017-04-17T12:44:09Z</time>
      </trkpt>
      <trkpt lat="50.30084" lon="4.3898">
        <ele>140.01</ele>
        <time>2017-04-17T12:44:33Z</time>
      </trkpt>
      <trkpt lat="50.30086" lon="4.3898">
        <ele>140.49</ele>
        <time>2017-04-17T12:44:52Z</time>
      </trkpt>
      <trkpt lat="50.30083" lon="4.3898">
        <ele>140.49</ele>
        <time>2017-04-17T12:45:12Z</time>
      </trkpt>
      <trkpt lat="50.30084" lon="4.38983">
        <ele>140.49</ele>
        <time>2017-04-17T12:45:34Z</time>
      </trkpt>
      <trkpt lat="50.30081" lon="4.38986">
        <ele>140.49</ele>
        <time>2017-04-17T12:46:01Z</time>
      </trkpt>
      <trkpt lat="50.3008" lon="4.38978">
        <ele>140.49</ele>
        <time>2017-04-17T12:46:28Z</time>
      </trkpt>
      <trkpt lat="50.3008" lon="4.38974">
        <ele>140.49</ele>
        <time>2017-04-17T12:46:53Z</time>
      </trkpt>
      <trkpt lat="50.30081" lon="4.38972">
        <ele>140.97</ele>
        <time>2017-04-17T12:47:18Z</time>
      </trkpt>
      <trkpt lat="50.30084" lon="4.38974">
        <ele>140.97</ele>
        <time>2017-04-17T12:47:39Z</time>
      </trkpt>
      <trkpt lat="50.30084" lon="4.38974">
        <ele>140.97</ele>
        <time>2017-04-17T12:48:01Z</time>
      </trkpt>
      <trkpt lat="50.30083" lon="4.38977">
        <ele>140.97</ele>
        <time>2017-04-17T12:48:23Z</time>
      </trkpt>
      <trkpt lat="50.30086" lon="4.38971">
        <ele>141.45</ele>
        <time>2017-04-17T12:48:52Z</time>
      </trkpt>
    </trkseg>
  </trk>
</gpx>